ACA34 YSSY-CYVR
Flight info
| Callsign | ACA34 |
|---|---|
| Flight time | N/A |
| Altitude | 31000 |
| Route | TESAT B450 NOBAR B474 VEMLA/N0486F330 B474 AKUMO/N0486F350 B474 ADOWA/N0476F370 B474 BARKR DCT APACK R463 AUNTI A332 HELOP/N0474F390 A332 HEKAB DCT ZANNG DCT SHARI DCT PEKAA SHARK4 |
| Aircraft | B77L/H-SDE1E2E3FGHIJ2J3J4J5M1RWXY/LB1D1 |
Departure
| Time | 2026-04-20 04:11 |
|---|---|
| Airport | Sydney Kingsford Smith International Airport (YSSY) |
Arrival
| Time | N/A |
|---|---|
| Airport | Vancouver International Airport (CYVR) |
| Time | Latitude | Longitude | Altitude | Speed | Heading |
|---|---|---|---|---|---|
| 2026-04-20 03:47 | -33.93891 | 151.16860 | 35 ft | 0 kts | 74° |
| 2026-04-20 04:00 | -33.93892 | 151.16854 | 34 ft | 2 kts | 74° |
| 2026-04-20 04:00 | -33.93897 | 151.16831 | 32 ft | 3 kts | 75° |
| 2026-04-20 04:00 | -33.93902 | 151.16808 | 33 ft | 3 kts | 81° |
| 2026-04-20 04:01 | -33.93904 | 151.16785 | 34 ft | 3 kts | 99° |
| 2026-04-20 04:01 | -33.93901 | 151.16769 | 33 ft | 3 kts | 136° |
| 2026-04-20 04:01 | -33.93896 | 151.16764 | 30 ft | 0 kts | 163° |
| 2026-04-20 04:01 | -33.93903 | 151.16766 | 34 ft | 3 kts | 163° |
| 2026-04-20 04:02 | -33.93922 | 151.16773 | 34 ft | 3 kts | 163° |
| 2026-04-20 04:02 | -33.93942 | 151.16779 | 34 ft | 3 kts | 167° |
| 2026-04-20 04:02 | -33.93951 | 151.16782 | 34 ft | 0 kts | 164° |
| 2026-04-20 04:05 | -33.93954 | 151.16783 | 34 ft | 3 kts | 164° |
| 2026-04-20 04:05 | -33.93982 | 151.16793 | 34 ft | 4 kts | 164° |
| 2026-04-20 04:05 | -33.94012 | 151.16803 | 34 ft | 4 kts | 164° |
| 2026-04-20 04:05 | -33.94046 | 151.16823 | 34 ft | 8 kts | 134° |
| 2026-04-20 04:06 | -33.94038 | 151.16942 | 34 ft | 19 kts | 73° |
| 2026-04-20 04:06 | -33.94000 | 151.17098 | 34 ft | 19 kts | 74° |
| 2026-04-20 04:06 | -33.93941 | 151.17210 | 33 ft | 14 kts | 12° |
| 2026-04-20 04:06 | -33.93786 | 151.17178 | 33 ft | 31 kts | 347° |
| 2026-04-20 04:07 | -33.93578 | 151.17123 | 33 ft | 30 kts | 348° |
| 2026-04-20 04:07 | -33.93377 | 151.17070 | 34 ft | 30 kts | 343° |
| 2026-04-20 04:07 | -33.93200 | 151.16945 | 34 ft | 30 kts | 349° |
| 2026-04-20 04:07 | -33.93109 | 151.16924 | 34 ft | 9 kts | 348° |
| 2026-04-20 04:08 | -33.93048 | 151.16909 | 34 ft | 9 kts | 348° |
| 2026-04-20 04:08 | -33.92995 | 151.16933 | 34 ft | 9 kts | 54° |
| 2026-04-20 04:08 | -33.92973 | 151.17006 | 35 ft | 9 kts | 79° |
| 2026-04-20 04:08 | -33.92963 | 151.17066 | 35 ft | 7 kts | 79° |
| 2026-04-20 04:09 | -33.92955 | 151.17121 | 35 ft | 7 kts | 81° |
| 2026-04-20 04:09 | -33.92989 | 151.17174 | 35 ft | 0 kts | 164° |
| 2026-04-20 04:09 | -33.93018 | 151.17182 | 35 ft | 13 kts | 168° |
| 2026-04-20 04:10 | -33.93253 | 151.17241 | 35 ft | 65 kts | 168° |
| 2026-04-20 04:10 | -33.93910 | 151.17409 | 31 ft | 126 kts | 167° |
| 2026-04-20 04:10 | -33.94939 | 151.17662 | 53 ft | 170 kts | 171° |
| 2026-04-20 04:11 | -33.98441 | 151.18007 | 1613 ft | 169 kts | 185° |
| 2026-04-20 04:11 | -33.99647 | 151.17860 | 1913 ft | 186 kts | 185° |
| 2026-04-20 04:11 | -34.00999 | 151.17702 | 2135 ft | 203 kts | 186° |
| 2026-04-20 04:12 | -34.02464 | 151.17543 | 2403 ft | 215 kts | 182° |
| 2026-04-20 04:12 | -34.03946 | 151.17863 | 2896 ft | 219 kts | 164° |
| 2026-04-20 04:12 | -34.05419 | 151.18400 | 3451 ft | 221 kts | 166° |
| 2026-04-20 04:12 | -34.06915 | 151.18906 | 3954 ft | 227 kts | 166° |
| 2026-04-20 04:13 | -34.08469 | 151.19426 | 4411 ft | 234 kts | 166° |
| 2026-04-20 04:13 | -34.10061 | 151.19959 | 4951 ft | 239 kts | 166° |
| 2026-04-20 04:13 | -34.11677 | 151.20500 | 5501 ft | 244 kts | 166° |
| 2026-04-20 04:13 | -34.13327 | 151.21051 | 6077 ft | 248 kts | 166° |
| 2026-04-20 04:14 | -34.15000 | 151.21609 | 6628 ft | 253 kts | 166° |
| 2026-04-20 04:14 | -34.16120 | 151.22018 | 6945 ft | 255 kts | 159° |
| 2026-04-20 04:14 | -34.17589 | 151.23291 | 7341 ft | 269 kts | 131° |
| 2026-04-20 04:14 | -34.18489 | 151.26126 | 8141 ft | 282 kts | 96° |
| 2026-04-20 04:15 | -34.18369 | 151.27707 | 8475 ft | 291 kts | 78° |
| 2026-04-20 04:15 | -34.17496 | 151.29941 | 8938 ft | 299 kts | 59° |
| 2026-04-20 04:15 | -34.16231 | 151.31989 | 8972 ft | 307 kts | 54° |
| 2026-04-20 04:15 | -34.14852 | 151.33958 | 8998 ft | 307 kts | 48° |
| 2026-04-20 04:16 | -34.13316 | 151.35733 | 8994 ft | 306 kts | 44° |
| 2026-04-20 04:16 | -34.11727 | 151.37436 | 8994 ft | 304 kts | 44° |
| 2026-04-20 04:16 | -34.10136 | 151.39132 | 9124 ft | 305 kts | 44° |
| 2026-04-20 04:16 | -34.08554 | 151.40836 | 9807 ft | 307 kts | 44° |
| 2026-04-20 04:17 | -34.06955 | 151.42576 | 10417 ft | 312 kts | 44° |
| 2026-04-20 04:17 | -34.05349 | 151.44338 | 11052 ft | 314 kts | 45° |
| 2026-04-20 04:17 | -34.03739 | 151.46116 | 11689 ft | 317 kts | 45° |
| 2026-04-20 04:17 | -34.02110 | 151.47924 | 12289 ft | 321 kts | 45° |
| 2026-04-20 04:18 | -34.00428 | 151.49795 | 12586 ft | 339 kts | 45° |
| 2026-04-20 04:18 | -33.98641 | 151.51786 | 12745 ft | 359 kts | 45° |
| 2026-04-20 04:18 | -33.96749 | 151.53892 | 12915 ft | 380 kts | 45° |
| 2026-04-20 04:18 | -33.94754 | 151.56111 | 13122 ft | 399 kts | 45° |
| 2026-04-20 04:19 | -33.92680 | 151.58412 | 13624 ft | 410 kts | 45° |
| 2026-04-20 04:19 | -33.90563 | 151.60759 | 14224 ft | 416 kts | 45° |
| 2026-04-20 04:19 | -33.89145 | 151.62329 | 14650 ft | 419 kts | 44° |
| 2026-04-20 04:19 | -33.86260 | 151.65523 | 15546 ft | 423 kts | 44° |
| 2026-04-20 04:20 | -33.84083 | 151.67934 | 16194 ft | 427 kts | 44° |
| 2026-04-20 04:20 | -33.81887 | 151.70365 | 16819 ft | 431 kts | 44° |
| 2026-04-20 04:20 | -33.79667 | 151.72819 | 17411 ft | 436 kts | 44° |
| 2026-04-20 04:20 | -33.77413 | 151.75298 | 18024 ft | 440 kts | 44° |
| 2026-04-20 04:21 | -33.75117 | 151.77768 | 18626 ft | 445 kts | 43° |
| 2026-04-20 04:21 | -33.72793 | 151.80239 | 19152 ft | 448 kts | 43° |
| 2026-04-20 04:21 | -33.70445 | 151.82726 | 19677 ft | 452 kts | 43° |
| 2026-04-20 04:21 | -33.68071 | 151.85241 | 20212 ft | 456 kts | 43° |
| 2026-04-20 04:22 | -33.65687 | 151.87767 | 20722 ft | 459 kts | 43° |
| 2026-04-20 04:22 | -33.63279 | 151.90322 | 21241 ft | 463 kts | 43° |
| 2026-04-20 04:22 | -33.60888 | 151.92859 | 21738 ft | 467 kts | 43° |
| 2026-04-20 04:22 | -33.58444 | 151.95454 | 22231 ft | 471 kts | 43° |
| 2026-04-20 04:23 | -33.55982 | 151.98065 | 22757 ft | 474 kts | 43° |
| 2026-04-20 04:23 | -33.53474 | 152.00725 | 23251 ft | 478 kts | 43° |
| 2026-04-20 04:23 | -33.51009 | 152.03336 | 23733 ft | 481 kts | 43° |
| 2026-04-20 04:23 | -33.48490 | 152.06003 | 24151 ft | 485 kts | 43° |
| 2026-04-20 04:24 | -33.45945 | 152.08695 | 24550 ft | 489 kts | 43° |
| 2026-04-20 04:24 | -33.43390 | 152.11396 | 24944 ft | 492 kts | 43° |
| 2026-04-20 04:24 | -33.40811 | 152.14118 | 25331 ft | 496 kts | 43° |
| 2026-04-20 04:24 | -33.38216 | 152.16856 | 25704 ft | 499 kts | 43° |
| 2026-04-20 04:25 | -33.35602 | 152.19611 | 26092 ft | 503 kts | 43° |
| 2026-04-20 04:25 | -33.32971 | 152.22383 | 26479 ft | 506 kts | 43° |
| 2026-04-20 04:25 | -33.30318 | 152.25174 | 26843 ft | 510 kts | 43° |
| 2026-04-20 04:25 | -33.27643 | 152.27987 | 27197 ft | 513 kts | 43° |
| 2026-04-20 04:26 | -33.24954 | 152.30811 | 27568 ft | 516 kts | 43° |
| 2026-04-20 04:26 | -33.22247 | 152.33652 | 27944 ft | 519 kts | 43° |
| 2026-04-20 04:26 | -33.19526 | 152.36506 | 28287 ft | 523 kts | 43° |
| 2026-04-20 04:26 | -33.16780 | 152.39384 | 28606 ft | 526 kts | 43° |
| 2026-04-20 04:27 | -33.14025 | 152.42268 | 28943 ft | 529 kts | 43° |
| 2026-04-20 04:27 | -33.11254 | 152.45166 | 29340 ft | 530 kts | 43° |
| 2026-04-20 04:27 | -33.08480 | 152.48065 | 29804 ft | 530 kts | 42° |
| 2026-04-20 04:27 | -33.05708 | 152.50959 | 30289 ft | 529 kts | 42° |
| 2026-04-20 04:28 | -33.02980 | 152.53804 | 30672 ft | 528 kts | 42° |
| 2026-04-20 04:28 | -33.00209 | 152.56692 | 31058 ft | 528 kts | 42° |
| 2026-04-20 04:28 | -32.97435 | 152.59581 | 31179 ft | 533 kts | 42° |
| 2026-04-20 04:28 | -32.94640 | 152.62491 | 31214 ft | 533 kts | 42° |
| 2026-04-20 04:29 | -32.89074 | 152.68275 | 31207 ft | 527 kts | 42° |
| 2026-04-20 04:29 | -32.83555 | 152.73999 | 31220 ft | 527 kts | 42° |
| 2026-04-20 04:30 | -32.78017 | 152.79735 | 31224 ft | 527 kts | 42° |
| 2026-04-20 04:30 | -32.72503 | 152.85437 | 31217 ft | 528 kts | 42° |
| 2026-04-20 04:31 | -32.66947 | 152.91171 | 31213 ft | 529 kts | 41° |
| 2026-04-20 04:31 | -32.61378 | 152.96909 | 31201 ft | 530 kts | 41° |
| 2026-04-20 04:32 | -32.55796 | 153.02650 | 31206 ft | 531 kts | 41° |
| 2026-04-20 04:32 | -32.50215 | 153.08381 | 31203 ft | 531 kts | 41° |
| 2026-04-20 04:33 | -32.44621 | 153.14116 | 31200 ft | 531 kts | 41° |
| 2026-04-20 04:33 | -32.39058 | 153.19808 | 31198 ft | 531 kts | 41° |
| 2026-04-20 04:34 | -32.33460 | 153.25527 | 31197 ft | 531 kts | 41° |
| 2026-04-20 04:34 | -32.27865 | 153.31233 | 31194 ft | 532 kts | 41° |
| 2026-04-20 04:35 | -32.22252 | 153.36948 | 31193 ft | 532 kts | 41° |
| 2026-04-20 04:35 | -32.16658 | 153.42634 | 31192 ft | 532 kts | 41° |
| 2026-04-20 04:36 | -32.08220 | 153.51193 | 31186 ft | 532 kts | 40° |
| 2026-04-20 04:37 | -32.02593 | 153.56888 | 31189 ft | 533 kts | 40° |
| 2026-04-20 04:37 | -31.96964 | 153.62576 | 31184 ft | 533 kts | 40° |
| 2026-04-20 04:38 | -31.91330 | 153.68260 | 31184 ft | 533 kts | 40° |
| 2026-04-20 04:38 | -31.85730 | 153.73899 | 31180 ft | 534 kts | 40° |
| 2026-04-20 04:39 | -31.80078 | 153.79583 | 31178 ft | 534 kts | 40° |
| 2026-04-20 04:39 | -31.74432 | 153.85250 | 31174 ft | 534 kts | 40° |
| 2026-04-20 04:40 | -31.68767 | 153.90928 | 31171 ft | 534 kts | 40° |
| 2026-04-20 04:40 | -31.63106 | 153.96594 | 31170 ft | 535 kts | 40° |
| 2026-04-20 04:41 | -31.57436 | 154.02256 | 31166 ft | 535 kts | 40° |
| 2026-04-20 04:41 | -31.51763 | 154.07906 | 31162 ft | 535 kts | 39° |
| 2026-04-20 04:42 | -31.46079 | 154.13559 | 31162 ft | 536 kts | 39° |
| 2026-04-20 04:42 | -31.40396 | 154.19205 | 31156 ft | 536 kts | 39° |
| 2026-04-20 04:43 | -31.34703 | 154.24853 | 31158 ft | 536 kts | 39° |
| 2026-04-20 04:43 | -31.29006 | 154.30494 | 31154 ft | 537 kts | 39° |
| 2026-04-20 04:44 | -31.23303 | 154.36132 | 31163 ft | 537 kts | 39° |
| 2026-04-20 04:44 | -31.17592 | 154.41769 | 31150 ft | 538 kts | 39° |
| 2026-04-20 04:45 | -31.11867 | 154.47410 | 31148 ft | 538 kts | 39° |
| 2026-04-20 04:45 | -31.06182 | 154.53003 | 31145 ft | 538 kts | 39° |
| 2026-04-20 04:46 | -31.00453 | 154.58631 | 31149 ft | 539 kts | 39° |
| 2026-04-20 04:46 | -30.94715 | 154.64258 | 31139 ft | 539 kts | 39° |
| 2026-04-20 04:47 | -30.88975 | 154.69877 | 31142 ft | 539 kts | 39° |
| 2026-04-20 04:47 | -30.83223 | 154.75499 | 31140 ft | 539 kts | 38° |
| 2026-04-20 04:48 | -30.77472 | 154.81111 | 31136 ft | 540 kts | 38° |
| 2026-04-20 04:48 | -30.71751 | 154.86685 | 31138 ft | 540 kts | 38° |
| 2026-04-20 04:49 | -30.65983 | 154.92295 | 31137 ft | 540 kts | 38° |
| 2026-04-20 04:49 | -30.60213 | 154.97898 | 31132 ft | 541 kts | 38° |
| 2026-04-20 04:50 | -30.54435 | 155.03501 | 31132 ft | 541 kts | 38° |
| 2026-04-20 04:50 | -30.48643 | 155.09108 | 31122 ft | 542 kts | 38° |
| 2026-04-20 04:51 | -30.42849 | 155.14707 | 31130 ft | 542 kts | 38° |
| 2026-04-20 04:51 | -30.37084 | 155.20270 | 31123 ft | 543 kts | 38° |
| 2026-04-20 04:52 | -30.31276 | 155.25866 | 31123 ft | 543 kts | 38° |
| 2026-04-20 04:52 | -30.25466 | 155.31454 | 31119 ft | 543 kts | 38° |
| 2026-04-20 04:53 | -30.19640 | 155.37048 | 31120 ft | 544 kts | 38° |
| 2026-04-20 04:53 | -30.13810 | 155.42638 | 31115 ft | 544 kts | 37° |
| 2026-04-20 04:54 | -30.07970 | 155.48229 | 31118 ft | 545 kts | 37° |
| 2026-04-20 04:54 | -30.02128 | 155.53813 | 31113 ft | 545 kts | 37° |
| 2026-04-20 04:55 | -29.96286 | 155.59388 | 31110 ft | 546 kts | 37° |
| 2026-04-20 04:55 | -29.90468 | 155.64930 | 31108 ft | 546 kts | 37° |
| 2026-04-20 04:56 | -29.84594 | 155.70518 | 31110 ft | 547 kts | 37° |
| 2026-04-20 04:56 | -29.78723 | 155.76094 | 31108 ft | 547 kts | 37° |
| 2026-04-20 04:57 | -29.72837 | 155.81675 | 31106 ft | 548 kts | 37° |
| 2026-04-20 04:57 | -29.66948 | 155.87251 | 31102 ft | 548 kts | 37° |
| 2026-04-20 04:58 | -29.61051 | 155.92825 | 31101 ft | 548 kts | 37° |
| 2026-04-20 04:58 | -29.56144 | 155.97458 | 31094 ft | 549 kts | 37° |
| 2026-04-20 04:59 | -29.49279 | 156.03927 | 31099 ft | 549 kts | 37° |
| 2026-04-20 04:59 | -29.43368 | 156.09490 | 31099 ft | 550 kts | 37° |
| 2026-04-20 05:00 | -29.38411 | 156.14147 | 31103 ft | 550 kts | 36° |
| 2026-04-20 05:00 | -29.32473 | 156.19717 | 31081 ft | 551 kts | 36° |
| 2026-04-20 05:01 | -29.26561 | 156.25255 | 31098 ft | 552 kts | 36° |
| 2026-04-20 05:01 | -29.20597 | 156.30834 | 31095 ft | 553 kts | 36° |
| 2026-04-20 05:02 | -29.14637 | 156.36399 | 31076 ft | 552 kts | 36° |
| 2026-04-20 05:02 | -29.08689 | 156.41946 | 31083 ft | 551 kts | 36° |
| 2026-04-20 05:03 | -29.02741 | 156.47484 | 31090 ft | 551 kts | 36° |
| 2026-04-20 05:03 | -28.96790 | 156.53015 | 31083 ft | 549 kts | 36° |
| 2026-04-20 05:04 | -28.90897 | 156.58485 | 31077 ft | 548 kts | 36° |
| 2026-04-20 05:04 | -28.84979 | 156.63969 | 31083 ft | 548 kts | 36° |
| 2026-04-20 05:05 | -28.79063 | 156.69443 | 31083 ft | 547 kts | 36° |
| 2026-04-20 05:05 | -28.73145 | 156.74911 | 31074 ft | 547 kts | 36° |
| 2026-04-20 05:06 | -28.67233 | 156.80365 | 31081 ft | 547 kts | 36° |
| 2026-04-20 05:06 | -28.61356 | 156.85778 | 31077 ft | 547 kts | 35° |
| 2026-04-20 05:07 | -28.55445 | 156.91216 | 31075 ft | 546 kts | 35° |
| 2026-04-20 05:07 | -28.49534 | 156.96644 | 31075 ft | 546 kts | 35° |
| 2026-04-20 05:08 | -28.43615 | 157.02073 | 31073 ft | 546 kts | 35° |
| 2026-04-20 05:08 | -28.37713 | 157.07478 | 31083 ft | 545 kts | 35° |
| 2026-04-20 05:09 | -28.31794 | 157.12890 | 31074 ft | 545 kts | 35° |
| 2026-04-20 05:09 | -28.25894 | 157.18277 | 31078 ft | 544 kts | 35° |
| 2026-04-20 05:10 | -28.19998 | 157.23652 | 31076 ft | 543 kts | 35° |
| 2026-04-20 05:10 | -28.14105 | 157.29017 | 31072 ft | 543 kts | 34° |
| 2026-04-20 05:11 | -28.08219 | 157.34367 | 31068 ft | 542 kts | 34° |
| 2026-04-20 05:11 | -28.02338 | 157.39706 | 31070 ft | 541 kts | 34° |
| 2026-04-20 05:12 | -27.96459 | 157.45035 | 31068 ft | 541 kts | 34° |
| 2026-04-20 05:12 | -27.90613 | 157.50325 | 31070 ft | 540 kts | 34° |
| 2026-04-20 05:13 | -27.84738 | 157.55636 | 31067 ft | 540 kts | 34° |
| 2026-04-20 05:13 | -27.78872 | 157.60930 | 31064 ft | 540 kts | 34° |
| 2026-04-20 05:14 | -27.72999 | 157.66223 | 31064 ft | 540 kts | 34° |
| 2026-04-20 05:14 | -27.67127 | 157.71508 | 31060 ft | 539 kts | 34° |
| 2026-04-20 05:15 | -27.61265 | 157.76776 | 31061 ft | 539 kts | 34° |
| 2026-04-20 05:15 | -27.55394 | 157.82045 | 31062 ft | 539 kts | 34° |
| 2026-04-20 05:16 | -27.49527 | 157.87303 | 31055 ft | 538 kts | 33° |
| 2026-04-20 05:16 | -27.43666 | 157.92548 | 31059 ft | 538 kts | 33° |
| 2026-04-20 05:17 | -27.37811 | 157.97781 | 31054 ft | 537 kts | 33° |
| 2026-04-20 05:17 | -27.31960 | 158.03002 | 31063 ft | 537 kts | 33° |
| 2026-04-20 05:18 | -27.26137 | 158.08191 | 31049 ft | 537 kts | 33° |
| 2026-04-20 05:18 | -27.20284 | 158.13401 | 31048 ft | 536 kts | 33° |
| 2026-04-20 05:19 | -27.14435 | 158.18599 | 31052 ft | 536 kts | 33° |
| 2026-04-20 05:19 | -27.08660 | 158.23733 | 31065 ft | 518 kts | 32° |
| 2026-04-20 05:20 | -27.03095 | 158.28672 | 31051 ft | 509 kts | 32° |
| 2026-04-20 05:20 | -26.97472 | 158.33633 | 31055 ft | 518 kts | 32° |
| 2026-04-20 05:21 | -26.91804 | 158.38648 | 31036 ft | 519 kts | 32° |
| 2026-04-20 05:21 | -26.86132 | 158.43659 | 31037 ft | 518 kts | 31° |
| 2026-04-20 05:22 | -26.80467 | 158.48647 | 31032 ft | 517 kts | 31° |
| 2026-04-20 05:22 | -26.74851 | 158.53586 | 31037 ft | 516 kts | 31° |
| 2026-04-20 05:23 | -26.69200 | 158.58552 | 31037 ft | 516 kts | 31° |
| 2026-04-20 05:23 | -26.63550 | 158.63511 | 31038 ft | 516 kts | 31° |
| 2026-04-20 05:24 | -26.57901 | 158.68464 | 31039 ft | 516 kts | 30° |
| 2026-04-20 05:24 | -26.52244 | 158.73417 | 31039 ft | 517 kts | 30° |
| 2026-04-20 05:25 | -26.46580 | 158.78370 | 31034 ft | 517 kts | 30° |
| 2026-04-20 05:25 | -26.40912 | 158.83320 | 31035 ft | 518 kts | 30° |
| 2026-04-20 05:26 | -26.35233 | 158.88273 | 31028 ft | 518 kts | 30° |
| 2026-04-20 05:26 | -26.29540 | 158.93233 | 31036 ft | 519 kts | 30° |
| 2026-04-20 05:27 | -26.23852 | 158.98181 | 31030 ft | 518 kts | 30° |
| 2026-04-20 05:27 | -26.18163 | 159.03124 | 31032 ft | 519 kts | 29° |
| 2026-04-20 05:28 | -26.12510 | 159.08030 | 31026 ft | 518 kts | 29° |
| 2026-04-20 05:28 | -26.06817 | 159.12965 | 31022 ft | 518 kts | 29° |
| 2026-04-20 05:29 | -26.01132 | 159.17885 | 31023 ft | 518 kts | 29° |
| 2026-04-20 05:29 | -25.95434 | 159.22811 | 31023 ft | 518 kts | 29° |
| 2026-04-20 05:30 | -25.89745 | 159.27723 | 31021 ft | 518 kts | 29° |
| 2026-04-20 05:30 | -25.84050 | 159.32634 | 31020 ft | 518 kts | 28° |
| 2026-04-20 05:31 | -25.78344 | 159.37548 | 31024 ft | 518 kts | 28° |
| 2026-04-20 05:31 | -25.72675 | 159.42424 | 31021 ft | 519 kts | 28° |
| 2026-04-20 05:32 | -25.66968 | 159.47326 | 31023 ft | 519 kts | 28° |
| 2026-04-20 05:32 | -25.61252 | 159.52231 | 31018 ft | 519 kts | 28° |
| 2026-04-20 05:33 | -25.55538 | 159.57128 | 31020 ft | 519 kts | 28° |
| 2026-04-20 05:33 | -25.49825 | 159.62018 | 31019 ft | 520 kts | 28° |
| 2026-04-20 05:34 | -25.44102 | 159.66910 | 31018 ft | 520 kts | 28° |
| 2026-04-20 05:34 | -25.35505 | 159.74248 | 31017 ft | 520 kts | 28° |
| 2026-04-20 05:35 | -25.29779 | 159.79128 | 31012 ft | 520 kts | 27° |
| 2026-04-20 05:35 | -25.24041 | 159.84013 | 31010 ft | 520 kts | 27° |
| 2026-04-20 05:36 | -25.18305 | 159.88889 | 31010 ft | 521 kts | 27° |
| 2026-04-20 05:36 | -25.12554 | 159.93773 | 31012 ft | 521 kts | 27° |
| 2026-04-20 05:37 | -25.06809 | 159.98644 | 31020 ft | 521 kts | 27° |
| 2026-04-20 05:37 | -25.01056 | 160.03517 | 31009 ft | 521 kts | 27° |
| 2026-04-20 05:38 | -24.95340 | 160.08354 | 31010 ft | 521 kts | 27° |
| 2026-04-20 05:38 | -24.89579 | 160.13223 | 31012 ft | 522 kts | 27° |
| 2026-04-20 05:39 | -24.83816 | 160.18087 | 31009 ft | 522 kts | 26° |
| 2026-04-20 05:39 | -24.78052 | 160.22947 | 31009 ft | 522 kts | 26° |
| 2026-04-20 05:40 | -24.72283 | 160.27805 | 31007 ft | 522 kts | 26° |
| 2026-04-20 05:40 | -24.66516 | 160.32656 | 31005 ft | 522 kts | 26° |
| 2026-04-20 05:41 | -24.60741 | 160.37508 | 31003 ft | 522 kts | 26° |
| 2026-04-20 05:41 | -24.54965 | 160.42350 | 31003 ft | 522 kts | 26° |
| 2026-04-20 05:42 | -24.50161 | 160.46372 | 31004 ft | 522 kts | 26° |
| 2026-04-20 05:42 | -24.44387 | 160.51202 | 31003 ft | 522 kts | 26° |
| 2026-04-20 05:43 | -24.38606 | 160.56034 | 31000 ft | 522 kts | 26° |
| 2026-04-20 05:43 | -24.32827 | 160.60860 | 31012 ft | 522 kts | 26° |
| 2026-04-20 05:44 | -24.27045 | 160.65682 | 30986 ft | 522 kts | 25° |
| 2026-04-20 05:44 | -24.21302 | 160.70465 | 31001 ft | 522 kts | 25° |
| 2026-04-20 05:45 | -24.15518 | 160.75278 | 31001 ft | 522 kts | 25° |
| 2026-04-20 05:45 | -24.09737 | 160.80083 | 30994 ft | 521 kts | 25° |
| 2026-04-20 05:46 | -24.03956 | 160.84881 | 30996 ft | 521 kts | 25° |
| 2026-04-20 05:46 | -23.98179 | 160.89670 | 30995 ft | 521 kts | 25° |
| 2026-04-20 05:47 | -23.92404 | 160.94453 | 30996 ft | 520 kts | 25° |
| 2026-04-20 05:47 | -23.86630 | 160.99229 | 30996 ft | 520 kts | 25° |
| 2026-04-20 05:48 | -23.80855 | 161.04001 | 30992 ft | 520 kts | 25° |
| 2026-04-20 05:48 | -23.75079 | 161.08767 | 30995 ft | 520 kts | 25° |
| 2026-04-20 05:49 | -23.69343 | 161.13496 | 30993 ft | 520 kts | 25° |
| 2026-04-20 05:49 | -23.63564 | 161.18254 | 30999 ft | 520 kts | 25° |
| 2026-04-20 05:50 | -23.57788 | 161.23004 | 30992 ft | 520 kts | 25° |
| 2026-04-20 05:50 | -23.51995 | 161.27764 | 30992 ft | 520 kts | 25° |
| 2026-04-20 05:51 | -23.46213 | 161.32509 | 30990 ft | 520 kts | 25° |
| 2026-04-20 05:51 | -23.40429 | 161.37250 | 30987 ft | 520 kts | 25° |
| 2026-04-20 05:52 | -23.34636 | 161.41993 | 30988 ft | 521 kts | 25° |
| 2026-04-20 05:52 | -23.28844 | 161.46730 | 30987 ft | 521 kts | 26° |
| 2026-04-20 05:53 | -23.23086 | 161.51434 | 30988 ft | 521 kts | 26° |
| 2026-04-20 05:53 | -23.17292 | 161.56163 | 30991 ft | 521 kts | 26° |
| 2026-04-20 05:54 | -23.11496 | 161.60887 | 30981 ft | 521 kts | 26° |
| 2026-04-20 05:54 | -23.05696 | 161.65610 | 30987 ft | 521 kts | 26° |
| 2026-04-20 05:55 | -22.99890 | 161.70333 | 30986 ft | 521 kts | 26° |
| 2026-04-20 05:55 | -22.94085 | 161.75050 | 30986 ft | 521 kts | 26° |
| 2026-04-20 05:56 | -22.88284 | 161.79757 | 30985 ft | 521 kts | 26° |
| 2026-04-20 05:56 | -22.82479 | 161.84463 | 30988 ft | 520 kts | 26° |
| 2026-04-20 05:57 | -22.76680 | 161.89159 | 30986 ft | 520 kts | 26° |
| 2026-04-20 05:57 | -22.70913 | 161.93825 | 30977 ft | 520 kts | 26° |
| 2026-04-20 05:58 | -22.65107 | 161.98516 | 30979 ft | 520 kts | 26° |
| 2026-04-20 05:58 | -22.59298 | 162.03204 | 30972 ft | 521 kts | 26° |
| 2026-04-20 05:59 | -22.53487 | 162.07890 | 30983 ft | 521 kts | 26° |
| 2026-04-20 05:59 | -22.47668 | 162.12577 | 30977 ft | 521 kts | 26° |
| 2026-04-20 06:00 | -22.41855 | 162.17254 | 30975 ft | 521 kts | 26° |
| 2026-04-20 06:00 | -22.36076 | 162.21899 | 30974 ft | 521 kts | 26° |
| 2026-04-20 06:01 | -22.30259 | 162.26570 | 30979 ft | 520 kts | 26° |
| 2026-04-20 06:01 | -22.24442 | 162.31235 | 30976 ft | 520 kts | 26° |
| 2026-04-20 06:02 | -22.18631 | 162.35891 | 30978 ft | 520 kts | 27° |
| 2026-04-20 06:02 | -22.12817 | 162.40544 | 30973 ft | 519 kts | 27° |
| 2026-04-20 06:03 | -22.07019 | 162.45180 | 30971 ft | 518 kts | 27° |
| 2026-04-20 06:03 | -22.01226 | 162.49807 | 30968 ft | 517 kts | 27° |
| 2026-04-20 06:04 | -21.95497 | 162.54378 | 30963 ft | 516 kts | 27° |
| 2026-04-20 06:04 | -21.89732 | 162.58973 | 30963 ft | 515 kts | 27° |
| 2026-04-20 06:05 | -21.83975 | 162.63557 | 30963 ft | 513 kts | 27° |
| 2026-04-20 06:05 | -21.78235 | 162.68122 | 30963 ft | 513 kts | 27° |
| 2026-04-20 06:06 | -21.72505 | 162.72675 | 30965 ft | 512 kts | 27° |
| 2026-04-20 06:06 | -21.66795 | 162.77207 | 30963 ft | 511 kts | 27° |
| 2026-04-20 06:07 | -21.61068 | 162.81749 | 30961 ft | 511 kts | 27° |
| 2026-04-20 06:07 | -21.55344 | 162.86282 | 30965 ft | 511 kts | 27° |
| 2026-04-20 06:08 | -21.49615 | 162.90817 | 30964 ft | 512 kts | 27° |
| 2026-04-20 06:08 | -21.43881 | 162.95352 | 30960 ft | 512 kts | 27° |
| 2026-04-20 06:09 | -21.38142 | 162.99886 | 30956 ft | 512 kts | 27° |
| 2026-04-20 06:09 | -21.32353 | 163.04312 | 30959 ft | 510 kts | 26° |
| 2026-04-20 06:10 | -21.26512 | 163.08647 | 30958 ft | 510 kts | 26° |
| 2026-04-20 06:10 | -21.20676 | 163.12980 | 30960 ft | 510 kts | 26° |
| 2026-04-20 06:11 | -21.14841 | 163.17333 | 30955 ft | 511 kts | 26° |
| 2026-04-20 06:11 | -21.09008 | 163.21693 | 30951 ft | 511 kts | 26° |
| 2026-04-20 06:12 | -21.03209 | 163.26025 | 30956 ft | 511 kts | 26° |
| 2026-04-20 06:12 | -20.97379 | 163.30374 | 30953 ft | 511 kts | 26° |
| 2026-04-20 06:13 | -20.91545 | 163.34721 | 30951 ft | 511 kts | 26° |
| 2026-04-20 06:13 | -20.85706 | 163.39067 | 30949 ft | 511 kts | 26° |
| 2026-04-20 06:14 | -20.79872 | 163.43405 | 30949 ft | 511 kts | 26° |
| 2026-04-20 06:14 | -20.74026 | 163.47748 | 30948 ft | 511 kts | 27° |
| 2026-04-20 06:15 | -20.68184 | 163.52084 | 30948 ft | 511 kts | 27° |
| 2026-04-20 06:15 | -20.62383 | 163.56385 | 30949 ft | 511 kts | 27° |
| 2026-04-20 06:16 | -20.56507 | 163.60738 | 30944 ft | 511 kts | 27° |
| 2026-04-20 06:16 | -20.50697 | 163.65037 | 30945 ft | 511 kts | 27° |
| 2026-04-20 06:17 | -20.44857 | 163.69355 | 30939 ft | 510 kts | 27° |
| 2026-04-20 06:17 | -20.39027 | 163.73662 | 30940 ft | 510 kts | 27° |
| 2026-04-20 06:18 | -20.33183 | 163.77975 | 30935 ft | 510 kts | 27° |
| 2026-04-20 06:18 | -20.27363 | 163.82266 | 30932 ft | 509 kts | 27° |
| 2026-04-20 06:19 | -20.21534 | 163.86560 | 30935 ft | 509 kts | 27° |
| 2026-04-20 06:19 | -20.15743 | 163.90821 | 30928 ft | 509 kts | 27° |
| 2026-04-20 06:20 | -20.09917 | 163.95105 | 30930 ft | 508 kts | 27° |
| 2026-04-20 06:20 | -20.04101 | 163.99377 | 30928 ft | 508 kts | 27° |
| 2026-04-20 06:21 | -19.98277 | 164.03651 | 30932 ft | 508 kts | 27° |
| 2026-04-20 06:21 | -19.92451 | 164.07922 | 30920 ft | 508 kts | 27° |
| 2026-04-20 06:22 | -19.86632 | 164.12185 | 30917 ft | 508 kts | 27° |
| 2026-04-20 06:22 | -19.80812 | 164.16445 | 30922 ft | 508 kts | 27° |
| 2026-04-20 06:23 | -19.75029 | 164.20674 | 30918 ft | 508 kts | 27° |
| 2026-04-20 06:23 | -19.69210 | 164.24925 | 30915 ft | 507 kts | 27° |
| 2026-04-20 06:24 | -19.63390 | 164.29173 | 30917 ft | 507 kts | 27° |
| 2026-04-20 06:24 | -19.57574 | 164.33415 | 30916 ft | 507 kts | 27° |
| 2026-04-20 06:25 | -19.51751 | 164.37657 | 30916 ft | 507 kts | 27° |
| 2026-04-20 06:25 | -19.45930 | 164.41895 | 30921 ft | 507 kts | 27° |
| 2026-04-20 06:26 | -19.40144 | 164.46103 | 30912 ft | 507 kts | 27° |
| 2026-04-20 06:26 | -19.34288 | 164.50358 | 30918 ft | 507 kts | 27° |
| 2026-04-20 06:27 | -19.28510 | 164.54553 | 30909 ft | 507 kts | 28° |
| 2026-04-20 06:27 | -19.22693 | 164.58773 | 30912 ft | 507 kts | 28° |
| 2026-04-20 06:28 | -19.16873 | 164.62991 | 30912 ft | 506 kts | 28° |
| 2026-04-20 06:28 | -19.11061 | 164.67200 | 30911 ft | 506 kts | 28° |
| 2026-04-20 06:29 | -19.06228 | 164.70698 | 30909 ft | 506 kts | 28° |
| 2026-04-20 06:29 | -19.00422 | 164.74895 | 30906 ft | 506 kts | 28° |
| 2026-04-20 06:30 | -18.94615 | 164.79090 | 30907 ft | 506 kts | 28° |
| 2026-04-20 06:30 | -18.88804 | 164.83284 | 30906 ft | 506 kts | 28° |
| 2026-04-20 06:31 | -18.82996 | 164.87472 | 30903 ft | 505 kts | 28° |
| 2026-04-20 06:31 | -18.77186 | 164.91658 | 30903 ft | 505 kts | 28° |
| 2026-04-20 06:32 | -18.71415 | 164.95813 | 30906 ft | 505 kts | 28° |
| 2026-04-20 06:32 | -18.65615 | 164.99985 | 30902 ft | 505 kts | 28° |
| 2026-04-20 06:33 | -18.59812 | 165.04156 | 30902 ft | 504 kts | 28° |
| 2026-04-20 06:33 | -18.54013 | 165.08319 | 30901 ft | 504 kts | 28° |
| 2026-04-20 06:34 | -18.48219 | 165.12477 | 30894 ft | 504 kts | 28° |
| 2026-04-20 06:35 | -18.39535 | 165.18701 | 30899 ft | 503 kts | 28° |
| 2026-04-20 06:35 | -18.33754 | 165.22841 | 30889 ft | 502 kts | 28° |
| 2026-04-20 06:36 | -18.27975 | 165.26975 | 30893 ft | 501 kts | 28° |
| 2026-04-20 06:36 | -18.22216 | 165.31092 | 30892 ft | 500 kts | 28° |
| 2026-04-20 06:37 | -18.16504 | 165.35172 | 30890 ft | 499 kts | 28° |
| 2026-04-20 06:37 | -18.10757 | 165.39274 | 30889 ft | 498 kts | 28° |
| 2026-04-20 06:38 | -18.05032 | 165.43356 | 30888 ft | 497 kts | 28° |
| 2026-04-20 06:38 | -17.99305 | 165.47436 | 30889 ft | 496 kts | 28° |
| 2026-04-20 06:39 | -17.93588 | 165.51506 | 30889 ft | 496 kts | 28° |
| 2026-04-20 06:39 | -17.87870 | 165.55574 | 30887 ft | 496 kts | 28° |
| 2026-04-20 06:40 | -17.82156 | 165.59635 | 30885 ft | 496 kts | 28° |
| 2026-04-20 06:40 | -17.76447 | 165.63690 | 30885 ft | 496 kts | 29° |
| 2026-04-20 06:41 | -17.70724 | 165.67752 | 30881 ft | 497 kts | 29° |
| 2026-04-20 06:41 | -17.64997 | 165.71813 | 30884 ft | 497 kts | 29° |
| 2026-04-20 06:42 | -17.59303 | 165.75847 | 30890 ft | 498 kts | 29° |
| 2026-04-20 06:42 | -17.53561 | 165.79914 | 30887 ft | 498 kts | 29° |
| 2026-04-20 06:43 | -17.47812 | 165.83981 | 30867 ft | 498 kts | 29° |
| 2026-04-20 06:43 | -17.42063 | 165.88045 | 30872 ft | 499 kts | 29° |
| 2026-04-20 06:44 | -17.36306 | 165.92112 | 30868 ft | 499 kts | 29° |
| 2026-04-20 06:44 | -17.30543 | 165.96180 | 30880 ft | 499 kts | 29° |
| 2026-04-20 06:45 | -17.24827 | 166.00212 | 30874 ft | 499 kts | 30° |
| 2026-04-20 06:45 | -17.19033 | 166.04296 | 30867 ft | 498 kts | 30° |
| 2026-04-20 06:46 | -17.13277 | 166.08349 | 30881 ft | 498 kts | 30° |
| 2026-04-20 06:46 | -17.07563 | 166.12370 | 30871 ft | 499 kts | 30° |
| 2026-04-20 06:47 | -17.01798 | 166.16424 | 30876 ft | 499 kts | 30° |
| 2026-04-20 06:47 | -16.96036 | 166.20473 | 30877 ft | 499 kts | 30° |
| 2026-04-20 06:48 | -16.90275 | 166.24518 | 30871 ft | 499 kts | 30° |
| 2026-04-20 06:48 | -16.84506 | 166.28565 | 30863 ft | 499 kts | 30° |
| 2026-04-20 06:49 | -16.78736 | 166.32611 | 30863 ft | 500 kts | 30° |
| 2026-04-20 06:49 | -16.72962 | 166.36656 | 30867 ft | 500 kts | 30° |
| 2026-04-20 06:50 | -16.67215 | 166.40679 | 30862 ft | 500 kts | 30° |
| 2026-04-20 06:50 | -16.61437 | 166.44721 | 30866 ft | 500 kts | 30° |
| 2026-04-20 06:51 | -16.55660 | 166.48759 | 30861 ft | 499 kts | 30° |
| 2026-04-20 06:51 | -16.49887 | 166.52792 | 30865 ft | 499 kts | 30° |
| 2026-04-20 06:52 | -16.44123 | 166.56815 | 30859 ft | 499 kts | 30° |
| 2026-04-20 06:52 | -16.38363 | 166.60833 | 30861 ft | 498 kts | 30° |
| 2026-04-20 06:53 | -16.32597 | 166.64851 | 30865 ft | 498 kts | 30° |
| 2026-04-20 06:53 | -16.26841 | 166.68860 | 30860 ft | 497 kts | 30° |
| 2026-04-20 06:54 | -16.21091 | 166.72862 | 30860 ft | 497 kts | 30° |
| 2026-04-20 06:54 | -16.15348 | 166.76857 | 30861 ft | 496 kts | 30° |
| 2026-04-20 06:55 | -16.09650 | 166.80816 | 30860 ft | 496 kts | 30° |
| 2026-04-20 06:55 | -16.03912 | 166.84802 | 30862 ft | 495 kts | 30° |
| 2026-04-20 06:56 | -15.98182 | 166.88778 | 30863 ft | 495 kts | 30° |
| 2026-04-20 06:56 | -15.92452 | 166.92752 | 30862 ft | 495 kts | 30° |
| 2026-04-20 06:57 | -15.86722 | 166.96723 | 30866 ft | 495 kts | 30° |
| 2026-04-20 06:57 | -15.80990 | 167.00693 | 30866 ft | 495 kts | 30° |
| 2026-04-20 06:58 | -15.75260 | 167.04659 | 30867 ft | 495 kts | 30° |
| 2026-04-20 06:58 | -15.69565 | 167.08598 | 30863 ft | 495 kts | 30° |
| 2026-04-20 06:59 | -15.63835 | 167.12560 | 30864 ft | 495 kts | 30° |
| 2026-04-20 06:59 | -15.58094 | 167.16526 | 30857 ft | 495 kts | 30° |
| 2026-04-20 07:00 | -15.52365 | 167.20483 | 30857 ft | 495 kts | 31° |
| 2026-04-20 07:00 | -15.46991 | 167.24980 | 30857 ft | 498 kts | 39° |
| 2026-04-20 07:01 | -15.41913 | 167.29879 | 30859 ft | 498 kts | 40° |
| 2026-04-20 07:01 | -15.36837 | 167.34776 | 30867 ft | 498 kts | 39° |
| 2026-04-20 07:02 | -15.31745 | 167.39640 | 30861 ft | 498 kts | 39° |
| 2026-04-20 07:02 | -15.26644 | 167.44487 | 30864 ft | 497 kts | 39° |
| 2026-04-20 07:03 | -15.21576 | 167.49296 | 30870 ft | 497 kts | 39° |
| 2026-04-20 07:03 | -15.16478 | 167.54131 | 30867 ft | 497 kts | 39° |
| 2026-04-20 07:04 | -15.11378 | 167.58966 | 30870 ft | 496 kts | 39° |
| 2026-04-20 07:04 | -15.06290 | 167.63788 | 30862 ft | 496 kts | 39° |
| 2026-04-20 07:05 | -15.01201 | 167.68607 | 30868 ft | 496 kts | 39° |
| 2026-04-20 07:05 | -14.96114 | 167.73421 | 30871 ft | 495 kts | 39° |
| 2026-04-20 07:06 | -14.91027 | 167.78231 | 30868 ft | 495 kts | 39° |
| 2026-04-20 07:06 | -14.85948 | 167.83030 | 30868 ft | 495 kts | 39° |
| 2026-04-20 07:07 | -14.80861 | 167.87834 | 30865 ft | 495 kts | 39° |
| 2026-04-20 07:07 | -14.75810 | 167.92601 | 30869 ft | 495 kts | 39° |
| 2026-04-20 07:08 | -14.70722 | 167.97400 | 30871 ft | 494 kts | 39° |
| 2026-04-20 07:08 | -14.65640 | 168.02189 | 30871 ft | 494 kts | 39° |
| 2026-04-20 07:09 | -14.60557 | 168.06977 | 30874 ft | 495 kts | 40° |
| 2026-04-20 07:09 | -14.55469 | 168.11766 | 30882 ft | 495 kts | 40° |
| 2026-04-20 07:10 | -14.50378 | 168.16555 | 30867 ft | 495 kts | 40° |
| 2026-04-20 07:10 | -14.45287 | 168.21341 | 30865 ft | 495 kts | 40° |
| 2026-04-20 07:11 | -14.40198 | 168.26121 | 30860 ft | 495 kts | 40° |
| 2026-04-20 07:11 | -14.35131 | 168.30878 | 30878 ft | 495 kts | 40° |
| 2026-04-20 07:12 | -14.30039 | 168.35656 | 30876 ft | 495 kts | 40° |
| 2026-04-20 07:12 | -14.24934 | 168.40443 | 30877 ft | 495 kts | 40° |
| 2026-04-20 07:13 | -14.19830 | 168.45225 | 30876 ft | 495 kts | 40° |
| 2026-04-20 07:13 | -14.14733 | 168.49998 | 30873 ft | 495 kts | 40° |
| 2026-04-20 07:14 | -14.09632 | 168.54772 | 30872 ft | 495 kts | 40° |
| 2026-04-20 07:14 | -14.04526 | 168.59547 | 30873 ft | 495 kts | 40° |
| 2026-04-20 07:15 | -13.99427 | 168.64313 | 30873 ft | 495 kts | 40° |
| 2026-04-20 07:15 | -13.94342 | 168.69062 | 30876 ft | 495 kts | 40° |
| 2026-04-20 07:16 | -13.90067 | 168.73054 | 30874 ft | 495 kts | 40° |
| 2026-04-20 07:16 | -13.84957 | 168.77821 | 30869 ft | 495 kts | 40° |
| 2026-04-20 07:17 | -13.79886 | 168.82549 | 30872 ft | 495 kts | 40° |
| 2026-04-20 07:17 | -13.74776 | 168.87311 | 30875 ft | 495 kts | 40° |
| 2026-04-20 07:18 | -13.69670 | 168.92067 | 30876 ft | 496 kts | 40° |
| 2026-04-20 07:18 | -13.64554 | 168.96828 | 30876 ft | 496 kts | 40° |
| 2026-04-20 07:19 | -13.59441 | 169.01584 | 30874 ft | 496 kts | 40° |
| 2026-04-20 07:19 | -13.54328 | 169.06337 | 30876 ft | 496 kts | 40° |
| 2026-04-20 07:20 | -13.49207 | 169.11095 | 30877 ft | 496 kts | 40° |
| 2026-04-20 07:20 | -13.44089 | 169.15847 | 30875 ft | 496 kts | 40° |
| 2026-04-20 07:21 | -13.38970 | 169.20596 | 30873 ft | 496 kts | 40° |
| 2026-04-20 07:21 | -13.33847 | 169.25346 | 30874 ft | 496 kts | 40° |
| 2026-04-20 07:22 | -13.28726 | 169.30092 | 30876 ft | 496 kts | 40° |
| 2026-04-20 07:22 | -13.23637 | 169.34806 | 30871 ft | 496 kts | 40° |
| 2026-04-20 07:23 | -13.18509 | 169.39554 | 30876 ft | 496 kts | 40° |
| 2026-04-20 07:23 | -13.13375 | 169.44303 | 30877 ft | 496 kts | 40° |
| 2026-04-20 07:24 | -13.08247 | 169.49045 | 30877 ft | 496 kts | 40° |
| 2026-04-20 07:24 | -13.03115 | 169.53787 | 30878 ft | 496 kts | 40° |
| 2026-04-20 07:25 | -12.97981 | 169.58528 | 30872 ft | 496 kts | 40° |
| 2026-04-20 07:25 | -12.92847 | 169.63267 | 30874 ft | 496 kts | 40° |
| 2026-04-20 07:26 | -12.87709 | 169.68006 | 30875 ft | 496 kts | 40° |
| 2026-04-20 07:26 | -12.82597 | 169.72719 | 30876 ft | 496 kts | 40° |
| 2026-04-20 07:27 | -12.77454 | 169.77458 | 30873 ft | 496 kts | 40° |
| 2026-04-20 07:27 | -12.72322 | 169.82184 | 30874 ft | 496 kts | 40° |
| 2026-04-20 07:28 | -12.67179 | 169.86917 | 30873 ft | 496 kts | 40° |
| 2026-04-20 07:28 | -12.62072 | 169.91615 | 30874 ft | 496 kts | 40° |
| 2026-04-20 07:29 | -12.56934 | 169.96339 | 30874 ft | 496 kts | 40° |
| 2026-04-20 07:29 | -12.51783 | 170.01071 | 30873 ft | 496 kts | 40° |
| 2026-04-20 07:30 | -12.46641 | 170.05793 | 30875 ft | 496 kts | 40° |
| 2026-04-20 07:30 | -12.41501 | 170.10511 | 30875 ft | 496 kts | 40° |
| 2026-04-20 07:31 | -12.36356 | 170.15230 | 30875 ft | 496 kts | 40° |
| 2026-04-20 07:31 | -12.31209 | 170.19948 | 30874 ft | 496 kts | 40° |
| 2026-04-20 07:32 | -12.26100 | 170.24630 | 30872 ft | 496 kts | 40° |
| 2026-04-20 07:32 | -12.20958 | 170.29339 | 30874 ft | 496 kts | 40° |
| 2026-04-20 07:33 | -12.15780 | 170.34077 | 30874 ft | 496 kts | 40° |
| 2026-04-20 07:33 | -12.10667 | 170.38755 | 30877 ft | 496 kts | 40° |
| 2026-04-20 07:34 | -12.05524 | 170.43457 | 30875 ft | 496 kts | 40° |
| 2026-04-20 07:34 | -12.00375 | 170.48162 | 30878 ft | 496 kts | 40° |
| 2026-04-20 07:35 | -11.92643 | 170.55223 | 30876 ft | 496 kts | 40° |
| 2026-04-20 07:35 | -11.87493 | 170.59922 | 30876 ft | 496 kts | 40° |
| 2026-04-20 07:36 | -11.82340 | 170.64622 | 30877 ft | 497 kts | 40° |
| 2026-04-20 07:36 | -11.77186 | 170.69320 | 30877 ft | 497 kts | 40° |
| 2026-04-20 07:37 | -11.72034 | 170.74015 | 30874 ft | 497 kts | 40° |
| 2026-04-20 07:37 | -11.66871 | 170.78716 | 30876 ft | 497 kts | 40° |
| 2026-04-20 07:38 | -11.61712 | 170.83412 | 30875 ft | 497 kts | 40° |
| 2026-04-20 07:38 | -11.56547 | 170.88111 | 30874 ft | 497 kts | 40° |
| 2026-04-20 07:39 | -11.51387 | 170.92802 | 30876 ft | 497 kts | 40° |
| 2026-04-20 07:39 | -11.46218 | 170.97500 | 30875 ft | 497 kts | 40° |
| 2026-04-20 07:40 | -11.41082 | 171.02165 | 30875 ft | 498 kts | 40° |
| 2026-04-20 07:40 | -11.35908 | 171.06862 | 30878 ft | 498 kts | 40° |
| 2026-04-20 07:41 | -11.30735 | 171.11556 | 30876 ft | 498 kts | 40° |
| 2026-04-20 07:41 | -11.25556 | 171.16253 | 30875 ft | 498 kts | 40° |
| 2026-04-20 07:42 | -11.20378 | 171.20947 | 30876 ft | 498 kts | 40° |
| 2026-04-20 07:42 | -11.15200 | 171.25638 | 30876 ft | 498 kts | 40° |
| 2026-04-20 07:43 | -11.10016 | 171.30333 | 30876 ft | 498 kts | 40° |
| 2026-04-20 07:43 | -11.04831 | 171.35025 | 30873 ft | 498 kts | 40° |
| 2026-04-20 07:44 | -10.99645 | 171.39718 | 30878 ft | 499 kts | 40° |
| 2026-04-20 07:44 | -10.94451 | 171.44414 | 30876 ft | 499 kts | 40° |
| 2026-04-20 07:45 | -10.89260 | 171.49106 | 30878 ft | 499 kts | 40° |
| 2026-04-20 07:45 | -10.84101 | 171.53766 | 30880 ft | 499 kts | 40° |
| 2026-04-20 07:46 | -10.78904 | 171.58459 | 30876 ft | 499 kts | 40° |
| 2026-04-20 07:46 | -10.73707 | 171.63148 | 30879 ft | 499 kts | 40° |
| 2026-04-20 07:47 | -10.68512 | 171.67835 | 30881 ft | 499 kts | 40° |
| 2026-04-20 07:47 | -10.63306 | 171.72529 | 30880 ft | 499 kts | 40° |
| 2026-04-20 07:48 | -10.58135 | 171.77189 | 30879 ft | 499 kts | 40° |
| 2026-04-20 07:48 | -10.52937 | 171.81871 | 30875 ft | 499 kts | 40° |
| 2026-04-20 07:49 | -10.47735 | 171.86555 | 30880 ft | 499 kts | 40° |
| 2026-04-20 07:49 | -10.42533 | 171.91237 | 30878 ft | 500 kts | 40° |
| 2026-04-20 07:50 | -10.37327 | 171.95920 | 30882 ft | 500 kts | 40° |
| 2026-04-20 07:50 | -10.32110 | 172.00610 | 30883 ft | 500 kts | 40° |
| 2026-04-20 07:51 | -10.26902 | 172.05291 | 30882 ft | 500 kts | 40° |
| 2026-04-20 07:51 | -10.21703 | 172.09961 | 30880 ft | 499 kts | 40° |
| 2026-04-20 07:52 | -10.16496 | 172.14636 | 30879 ft | 499 kts | 40° |
| 2026-04-20 07:52 | -10.11325 | 172.19278 | 30875 ft | 499 kts | 40° |
| 2026-04-20 07:53 | -10.06117 | 172.23950 | 30876 ft | 500 kts | 40° |
| 2026-04-20 07:53 | -10.00904 | 172.28624 | 30880 ft | 500 kts | 40° |
| 2026-04-20 07:54 | -9.95690 | 172.33297 | 30878 ft | 500 kts | 40° |
| 2026-04-20 07:54 | -9.90476 | 172.37969 | 30880 ft | 500 kts | 40° |
| 2026-04-20 07:55 | -9.85259 | 172.42643 | 30879 ft | 500 kts | 40° |
| 2026-04-20 07:55 | -9.80040 | 172.47312 | 30879 ft | 500 kts | 40° |
| 2026-04-20 07:56 | -9.74813 | 172.51961 | 30878 ft | 500 kts | 40° |
| 2026-04-20 07:56 | -9.69607 | 172.56580 | 30878 ft | 500 kts | 40° |
| 2026-04-20 07:57 | -9.64367 | 172.61232 | 30878 ft | 500 kts | 40° |
| 2026-04-20 07:57 | -9.59171 | 172.65845 | 30879 ft | 500 kts | 40° |
| 2026-04-20 07:58 | -9.54137 | 172.70315 | 30881 ft | 500 kts | 40° |
| 2026-04-20 07:58 | -9.48896 | 172.74965 | 30880 ft | 500 kts | 40° |
| 2026-04-20 07:59 | -9.44552 | 172.78818 | 30881 ft | 500 kts | 40° |
| 2026-04-20 07:59 | -9.39314 | 172.83463 | 30877 ft | 501 kts | 40° |
| 2026-04-20 08:00 | -9.34067 | 172.88112 | 30876 ft | 501 kts | 40° |
| 2026-04-20 08:00 | -9.28815 | 172.92765 | 30881 ft | 501 kts | 40° |
| 2026-04-20 08:01 | -9.23676 | 172.97316 | 30886 ft | 501 kts | 40° |
| 2026-04-20 08:01 | -9.18785 | 173.01646 | 30877 ft | 501 kts | 40° |
| 2026-04-20 08:02 | -9.13615 | 173.06220 | 30878 ft | 501 kts | 40° |
| 2026-04-20 08:02 | -9.08364 | 173.10865 | 30878 ft | 501 kts | 40° |
| 2026-04-20 08:03 | -9.03118 | 173.15503 | 30879 ft | 501 kts | 40° |
| 2026-04-20 08:03 | -8.98070 | 173.19965 | 30880 ft | 501 kts | 40° |
| 2026-04-20 08:04 | -8.92855 | 173.24571 | 30884 ft | 501 kts | 40° |
| 2026-04-20 08:04 | -8.87603 | 173.29210 | 30883 ft | 501 kts | 40° |
| 2026-04-20 08:05 | -8.82341 | 173.33855 | 30881 ft | 501 kts | 40° |
| 2026-04-20 08:05 | -8.77090 | 173.38487 | 30882 ft | 501 kts | 40° |
| 2026-04-20 08:06 | -8.71832 | 173.43125 | 30884 ft | 501 kts | 40° |
| 2026-04-20 08:06 | -8.66578 | 173.47758 | 30882 ft | 501 kts | 40° |
| 2026-04-20 08:07 | -8.61317 | 173.52395 | 30885 ft | 501 kts | 40° |
| 2026-04-20 08:07 | -8.56075 | 173.57013 | 30884 ft | 501 kts | 40° |
| 2026-04-20 08:08 | -8.50806 | 173.61653 | 30888 ft | 501 kts | 40° |
| 2026-04-20 08:08 | -8.45553 | 173.66278 | 30887 ft | 501 kts | 40° |
| 2026-04-20 08:09 | -8.40329 | 173.70875 | 30889 ft | 501 kts | 40° |
| 2026-04-20 08:09 | -8.35066 | 173.75505 | 30888 ft | 501 kts | 40° |
| 2026-04-20 08:10 | -8.29808 | 173.80129 | 30887 ft | 501 kts | 40° |
| 2026-04-20 08:10 | -8.24553 | 173.84748 | 30887 ft | 501 kts | 40° |
| 2026-04-20 08:11 | -8.19292 | 173.89371 | 30884 ft | 501 kts | 40° |
| 2026-04-20 08:11 | -8.14039 | 173.93986 | 30884 ft | 501 kts | 40° |
| 2026-04-20 08:12 | -8.08780 | 173.98603 | 30886 ft | 501 kts | 40° |
| 2026-04-20 08:12 | -8.03523 | 174.03217 | 30887 ft | 501 kts | 40° |
| 2026-04-20 08:13 | -7.98288 | 174.07811 | 30888 ft | 501 kts | 40° |
| 2026-04-20 08:13 | -7.93020 | 174.12432 | 30888 ft | 501 kts | 40° |
| 2026-04-20 08:14 | -7.87758 | 174.17046 | 30885 ft | 501 kts | 40° |
| 2026-04-20 08:14 | -7.82492 | 174.21662 | 30888 ft | 501 kts | 40° |
| 2026-04-20 08:15 | -7.77216 | 174.26285 | 30890 ft | 501 kts | 40° |
| 2026-04-20 08:15 | -7.71948 | 174.30899 | 30890 ft | 502 kts | 40° |
| 2026-04-20 08:16 | -7.66677 | 174.35515 | 30890 ft | 502 kts | 40° |
| 2026-04-20 08:16 | -7.61411 | 174.40124 | 30890 ft | 502 kts | 40° |
| 2026-04-20 08:17 | -7.56135 | 174.44741 | 30889 ft | 502 kts | 40° |
| 2026-04-20 08:17 | -7.50860 | 174.49355 | 30889 ft | 502 kts | 40° |
| 2026-04-20 08:18 | -7.45587 | 174.53966 | 30891 ft | 502 kts | 40° |
| 2026-04-20 08:18 | -7.40307 | 174.58582 | 30886 ft | 502 kts | 40° |
| 2026-04-20 08:19 | -7.35025 | 174.63197 | 30890 ft | 502 kts | 40° |
| 2026-04-20 08:19 | -7.29783 | 174.67777 | 30889 ft | 502 kts | 40° |
| 2026-04-20 08:20 | -7.24502 | 174.72388 | 30890 ft | 502 kts | 40° |
| 2026-04-20 08:20 | -7.19229 | 174.76993 | 30891 ft | 501 kts | 40° |
| 2026-04-20 08:21 | -7.13959 | 174.81592 | 30887 ft | 501 kts | 40° |
| 2026-04-20 08:21 | -7.08686 | 174.86192 | 30891 ft | 501 kts | 40° |
| 2026-04-20 08:22 | -7.03418 | 174.90787 | 30889 ft | 501 kts | 40° |
| 2026-04-20 08:22 | -6.98153 | 174.95378 | 30888 ft | 500 kts | 41° |
| 2026-04-20 08:23 | -6.92883 | 174.99971 | 30886 ft | 500 kts | 40° |
| 2026-04-20 08:23 | -6.87623 | 175.04554 | 30887 ft | 500 kts | 41° |
| 2026-04-20 08:24 | -6.82366 | 175.09134 | 30889 ft | 500 kts | 41° |
| 2026-04-20 08:24 | -6.77135 | 175.13690 | 30892 ft | 500 kts | 41° |
| 2026-04-20 08:25 | -6.71876 | 175.18269 | 30888 ft | 500 kts | 41° |
| 2026-04-20 08:25 | -6.66614 | 175.22848 | 30891 ft | 500 kts | 41° |
| 2026-04-20 08:26 | -6.61353 | 175.27426 | 30892 ft | 500 kts | 41° |
| 2026-04-20 08:26 | -6.56093 | 175.32002 | 30888 ft | 500 kts | 41° |
| 2026-04-20 08:27 | -6.50835 | 175.36574 | 30887 ft | 500 kts | 41° |
| 2026-04-20 08:27 | -6.45571 | 175.41150 | 30889 ft | 500 kts | 41° |
| 2026-04-20 08:28 | -6.40341 | 175.45696 | 30888 ft | 500 kts | 41° |
| 2026-04-20 08:28 | -6.35076 | 175.50271 | 30887 ft | 500 kts | 41° |
| 2026-04-20 08:29 | -6.29807 | 175.54850 | 30890 ft | 500 kts | 41° |
| 2026-04-20 08:29 | -6.24540 | 175.59423 | 30891 ft | 500 kts | 40° |
| 2026-04-20 08:30 | -6.19201 | 175.63907 | 30893 ft | 500 kts | 39° |
| 2026-04-20 08:30 | -6.13812 | 175.68332 | 30891 ft | 500 kts | 39° |
| 2026-04-20 08:31 | -6.08425 | 175.72764 | 30886 ft | 500 kts | 39° |
| 2026-04-20 08:31 | -6.03075 | 175.77186 | 30888 ft | 500 kts | 39° |
| 2026-04-20 08:32 | -5.97670 | 175.81662 | 30888 ft | 500 kts | 39° |
| 2026-04-20 08:32 | -5.92326 | 175.86087 | 30888 ft | 500 kts | 39° |
| 2026-04-20 08:33 | -5.84261 | 175.92761 | 30888 ft | 500 kts | 39° |
| 2026-04-20 08:34 | -5.78886 | 175.97207 | 30887 ft | 500 kts | 39° |
| 2026-04-20 08:34 | -5.73518 | 176.01646 | 30886 ft | 500 kts | 39° |
| 2026-04-20 08:35 | -5.68146 | 176.06087 | 30883 ft | 500 kts | 39° |
| 2026-04-20 08:35 | -5.62779 | 176.10523 | 30885 ft | 500 kts | 39° |
| 2026-04-20 08:36 | -5.57414 | 176.14956 | 30890 ft | 499 kts | 39° |
| 2026-04-20 08:36 | -5.52081 | 176.19362 | 30887 ft | 499 kts | 39° |
| 2026-04-20 08:37 | -5.46711 | 176.23797 | 30888 ft | 499 kts | 39° |
| 2026-04-20 08:37 | -5.41344 | 176.28229 | 30887 ft | 499 kts | 39° |
| 2026-04-20 08:38 | -5.35975 | 176.32660 | 30890 ft | 499 kts | 39° |
| 2026-04-20 08:38 | -5.30613 | 176.37086 | 30887 ft | 499 kts | 40° |
| 2026-04-20 08:39 | -5.25246 | 176.41515 | 30889 ft | 499 kts | 39° |
| 2026-04-20 08:39 | -5.19912 | 176.45915 | 30890 ft | 499 kts | 40° |
| 2026-04-20 08:40 | -5.14541 | 176.50344 | 30890 ft | 499 kts | 40° |
| 2026-04-20 08:40 | -5.09176 | 176.54769 | 30890 ft | 499 kts | 40° |
| 2026-04-20 08:41 | -5.03811 | 176.59191 | 30891 ft | 499 kts | 40° |
| 2026-04-20 08:41 | -4.98445 | 176.63614 | 30890 ft | 499 kts | 40° |
| 2026-04-20 08:42 | -4.93110 | 176.68010 | 30890 ft | 499 kts | 40° |
| 2026-04-20 08:42 | -4.87740 | 176.72434 | 30891 ft | 499 kts | 40° |
| 2026-04-20 08:43 | -4.82371 | 176.76856 | 30889 ft | 499 kts | 40° |
| 2026-04-20 08:43 | -4.77001 | 176.81279 | 30889 ft | 499 kts | 40° |
| 2026-04-20 08:44 | -4.72534 | 176.84956 | 30891 ft | 499 kts | 40° |
| 2026-04-20 08:44 | -4.66258 | 176.90123 | 30891 ft | 499 kts | 40° |
| 2026-04-20 08:45 | -4.61790 | 176.93799 | 30891 ft | 499 kts | 40° |
| 2026-04-20 08:45 | -4.56417 | 176.98221 | 30893 ft | 499 kts | 40° |
| 2026-04-20 08:46 | -4.51048 | 177.02638 | 30894 ft | 499 kts | 40° |
| 2026-04-20 08:46 | -4.45671 | 177.07060 | 30893 ft | 499 kts | 40° |
| 2026-04-20 08:47 | -4.40335 | 177.11449 | 30895 ft | 499 kts | 40° |
| 2026-04-20 08:47 | -4.34967 | 177.15862 | 30893 ft | 499 kts | 40° |
| 2026-04-20 08:48 | -4.29598 | 177.20276 | 30894 ft | 499 kts | 40° |
| 2026-04-20 08:48 | -4.24231 | 177.24687 | 30894 ft | 499 kts | 40° |
| 2026-04-20 08:49 | -4.18863 | 177.29098 | 30893 ft | 499 kts | 40° |
| 2026-04-20 08:49 | -4.13486 | 177.33515 | 30894 ft | 499 kts | 40° |
| 2026-04-20 08:50 | -4.08109 | 177.37933 | 30893 ft | 499 kts | 40° |
| 2026-04-20 08:50 | -4.02731 | 177.42349 | 30894 ft | 499 kts | 40° |
| 2026-04-20 08:51 | -3.97393 | 177.46732 | 30894 ft | 499 kts | 40° |
| 2026-04-20 08:51 | -3.92023 | 177.51142 | 30895 ft | 499 kts | 40° |
| 2026-04-20 08:52 | -3.86654 | 177.55549 | 30895 ft | 499 kts | 40° |
| 2026-04-20 08:52 | -3.81275 | 177.59963 | 30896 ft | 499 kts | 40° |
| 2026-04-20 08:53 | -3.75896 | 177.64378 | 30899 ft | 500 kts | 40° |
| 2026-04-20 08:53 | -3.70514 | 177.68793 | 30899 ft | 500 kts | 40° |
| 2026-04-20 08:54 | -3.65129 | 177.73211 | 30900 ft | 500 kts | 40° |
| 2026-04-20 08:54 | -3.59786 | 177.77593 | 30899 ft | 500 kts | 40° |
| 2026-04-20 08:55 | -3.54399 | 177.82011 | 30899 ft | 500 kts | 40° |
| 2026-04-20 08:55 | -3.49014 | 177.86425 | 30897 ft | 500 kts | 40° |
| 2026-04-20 08:56 | -3.43626 | 177.90843 | 30894 ft | 500 kts | 40° |
| 2026-04-20 08:56 | -3.38269 | 177.95234 | 30895 ft | 500 kts | 40° |
| 2026-04-20 08:57 | -3.32880 | 177.99650 | 30896 ft | 500 kts | 40° |
| 2026-04-20 08:57 | -3.27498 | 178.04061 | 30898 ft | 500 kts | 40° |
| 2026-04-20 08:58 | -3.22103 | 178.08481 | 30898 ft | 500 kts | 40° |
| 2026-04-20 08:58 | -3.16719 | 178.12892 | 30901 ft | 500 kts | 40° |
| 2026-04-20 08:59 | -3.11331 | 178.17305 | 30898 ft | 500 kts | 40° |
| 2026-04-20 08:59 | -3.05940 | 178.21720 | 30897 ft | 501 kts | 40° |
| 2026-04-20 09:00 | -3.00544 | 178.26139 | 30897 ft | 501 kts | 40° |
| 2026-04-20 09:00 | -2.95152 | 178.30554 | 30896 ft | 501 kts | 40° |
| 2026-04-20 09:01 | -2.89756 | 178.34971 | 30904 ft | 501 kts | 40° |
| 2026-04-20 09:01 | -2.84390 | 178.39363 | 30905 ft | 502 kts | 40° |
| 2026-04-20 09:02 | -2.78986 | 178.43786 | 30903 ft | 502 kts | 40° |
| 2026-04-20 09:02 | -2.73584 | 178.48207 | 30904 ft | 502 kts | 40° |
| 2026-04-20 09:03 | -2.68177 | 178.52631 | 30904 ft | 501 kts | 40° |
| 2026-04-20 09:03 | -2.62776 | 178.57050 | 30904 ft | 501 kts | 40° |
| 2026-04-20 09:04 | -2.57374 | 178.61469 | 30906 ft | 501 kts | 40° |
| 2026-04-20 09:04 | -2.51970 | 178.65890 | 30907 ft | 502 kts | 40° |
| 2026-04-20 09:05 | -2.46567 | 178.70308 | 30904 ft | 502 kts | 40° |
| 2026-04-20 09:05 | -2.41160 | 178.74730 | 30906 ft | 502 kts | 40° |
| 2026-04-20 09:06 | -2.35783 | 178.79127 | 30902 ft | 502 kts | 40° |
| 2026-04-20 09:06 | -2.30369 | 178.83554 | 30904 ft | 502 kts | 40° |
| 2026-04-20 09:07 | -2.24957 | 178.87979 | 30905 ft | 502 kts | 40° |
| 2026-04-20 09:07 | -2.19546 | 178.92402 | 30905 ft | 502 kts | 40° |
| 2026-04-20 09:08 | -2.14142 | 178.96819 | 30904 ft | 502 kts | 40° |
| 2026-04-20 09:08 | -2.08769 | 179.01210 | 30907 ft | 502 kts | 40° |
| 2026-04-20 09:09 | -2.03360 | 179.05631 | 30904 ft | 502 kts | 40° |
| 2026-04-20 09:09 | -1.97944 | 179.10057 | 30904 ft | 502 kts | 40° |
| 2026-04-20 09:10 | -1.92539 | 179.14473 | 30906 ft | 502 kts | 40° |
| 2026-04-20 09:10 | -1.87128 | 179.18894 | 30907 ft | 502 kts | 40° |
| 2026-04-20 09:11 | -1.81719 | 179.23313 | 30908 ft | 502 kts | 40° |
| 2026-04-20 09:11 | -1.76308 | 179.27733 | 30902 ft | 502 kts | 40° |
| 2026-04-20 09:12 | -1.70895 | 179.32154 | 30904 ft | 502 kts | 40° |
| 2026-04-20 09:12 | -1.65485 | 179.36573 | 30904 ft | 502 kts | 40° |
| 2026-04-20 09:13 | -1.60110 | 179.40963 | 30903 ft | 502 kts | 40° |
| 2026-04-20 09:13 | -1.54704 | 179.45378 | 30902 ft | 502 kts | 40° |
| 2026-04-20 09:14 | -1.49295 | 179.49795 | 30900 ft | 502 kts | 40° |
| 2026-04-20 09:14 | -1.43890 | 179.54208 | 30904 ft | 502 kts | 40° |
| 2026-04-20 09:15 | -1.38477 | 179.58628 | 30905 ft | 502 kts | 40° |
| 2026-04-20 09:15 | -1.33071 | 179.63041 | 30904 ft | 501 kts | 40° |
| 2026-04-20 09:16 | -1.27668 | 179.67453 | 30906 ft | 501 kts | 40° |
| 2026-04-20 09:16 | -1.22253 | 179.71873 | 30905 ft | 502 kts | 40° |
| 2026-04-20 09:17 | -1.16848 | 179.76286 | 30903 ft | 502 kts | 40° |
| 2026-04-20 09:17 | -1.11472 | 179.80675 | 30905 ft | 502 kts | 40° |
| 2026-04-20 09:18 | -1.06066 | 179.85087 | 30903 ft | 502 kts | 40° |
| 2026-04-20 09:18 | -1.00662 | 179.89498 | 30903 ft | 502 kts | 40° |
| 2026-04-20 09:19 | -0.95260 | 179.93909 | 30904 ft | 502 kts | 40° |
| 2026-04-20 09:19 | -0.89852 | 179.98323 | 30904 ft | 502 kts | 40° |
| 2026-04-20 09:20 | -0.84603 | -179.97073 | 30903 ft | 501 kts | 44° |
| 2026-04-20 09:20 | -0.79583 | -179.92297 | 30907 ft | 501 kts | 44° |
| 2026-04-20 09:21 | -0.74545 | -179.87481 | 30904 ft | 501 kts | 44° |
| 2026-04-20 09:21 | -0.69489 | -179.82677 | 30904 ft | 501 kts | 44° |
| 2026-04-20 09:22 | -0.64416 | -179.77875 | 30906 ft | 501 kts | 44° |
| 2026-04-20 09:22 | -0.59347 | -179.73081 | 30905 ft | 501 kts | 44° |
| 2026-04-20 09:23 | -0.54274 | -179.68283 | 30903 ft | 501 kts | 44° |
| 2026-04-20 09:23 | -0.49245 | -179.63524 | 30908 ft | 501 kts | 44° |
| 2026-04-20 09:24 | -0.44177 | -179.58729 | 30904 ft | 501 kts | 44° |
| 2026-04-20 09:24 | -0.39113 | -179.53937 | 30904 ft | 501 kts | 44° |
| 2026-04-20 09:25 | -0.34044 | -179.49141 | 30904 ft | 502 kts | 44° |
| 2026-04-20 09:25 | -0.28973 | -179.44343 | 30903 ft | 502 kts | 44° |
| 2026-04-20 09:26 | -0.23904 | -179.39548 | 30904 ft | 502 kts | 44° |
| 2026-04-20 09:26 | -0.18869 | -179.34783 | 30907 ft | 502 kts | 44° |
| 2026-04-20 09:27 | -0.13795 | -179.29983 | 30906 ft | 502 kts | 44° |
| 2026-04-20 09:27 | -0.08722 | -179.25184 | 30907 ft | 502 kts | 44° |
| 2026-04-20 09:28 | -0.03649 | -179.20384 | 30908 ft | 502 kts | 44° |
| 2026-04-20 09:28 | 0.01423 | -179.15585 | 30908 ft | 502 kts | 44° |
| 2026-04-20 09:29 | 0.06495 | -179.10787 | 30909 ft | 502 kts | 44° |
| 2026-04-20 09:29 | 0.11573 | -179.05982 | 30907 ft | 502 kts | 44° |
| 2026-04-20 09:30 | 0.16644 | -179.01184 | 30909 ft | 502 kts | 44° |
| 2026-04-20 09:30 | 0.21726 | -178.96376 | 30907 ft | 502 kts | 44° |
| 2026-04-20 09:31 | 0.25939 | -178.92390 | 30910 ft | 502 kts | 44° |
| 2026-04-20 09:31 | 0.31008 | -178.87594 | 30908 ft | 502 kts | 44° |
| 2026-04-20 09:32 | 0.36076 | -178.82799 | 30909 ft | 502 kts | 44° |
| 2026-04-20 09:32 | 0.41148 | -178.78000 | 30905 ft | 502 kts | 44° |
| 2026-04-20 09:33 | 0.46221 | -178.73199 | 30908 ft | 502 kts | 44° |
| 2026-04-20 09:33 | 0.51295 | -178.68398 | 30910 ft | 502 kts | 44° |
| 2026-04-20 09:34 | 0.56372 | -178.63595 | 30907 ft | 502 kts | 44° |
| 2026-04-20 09:34 | 0.63935 | -178.56439 | 30909 ft | 501 kts | 44° |
| 2026-04-20 09:35 | 0.69003 | -178.51642 | 30909 ft | 501 kts | 44° |
| 2026-04-20 09:35 | 0.74063 | -178.46854 | 30909 ft | 501 kts | 44° |
| 2026-04-20 09:36 | 0.79119 | -178.42069 | 30913 ft | 500 kts | 44° |
| 2026-04-20 09:36 | 0.84173 | -178.37286 | 30910 ft | 500 kts | 44° |
| 2026-04-20 09:37 | 0.89226 | -178.32504 | 30911 ft | 500 kts | 44° |
| 2026-04-20 09:37 | 0.94285 | -178.27716 | 30912 ft | 500 kts | 44° |
| 2026-04-20 09:38 | 0.99340 | -178.22931 | 30910 ft | 500 kts | 44° |
| 2026-04-20 09:38 | 1.04358 | -178.18181 | 30911 ft | 500 kts | 44° |
| 2026-04-20 09:39 | 1.09414 | -178.13396 | 30910 ft | 500 kts | 44° |
| 2026-04-20 09:39 | 1.14468 | -178.08612 | 30907 ft | 500 kts | 44° |
| 2026-04-20 09:40 | 1.19520 | -178.03829 | 30909 ft | 500 kts | 44° |
| 2026-04-20 09:40 | 1.24532 | -177.99083 | 30913 ft | 499 kts | 44° |
| 2026-04-20 09:41 | 1.29572 | -177.94312 | 30911 ft | 499 kts | 44° |
| 2026-04-20 09:41 | 1.34618 | -177.89534 | 30912 ft | 499 kts | 44° |
| 2026-04-20 09:42 | 1.39660 | -177.84760 | 30909 ft | 499 kts | 44° |
| 2026-04-20 09:42 | 1.44707 | -177.79980 | 30909 ft | 499 kts | 44° |
| 2026-04-20 09:43 | 1.49749 | -177.75205 | 30914 ft | 499 kts | 44° |
| 2026-04-20 09:43 | 1.54793 | -177.70428 | 30912 ft | 499 kts | 44° |
| 2026-04-20 09:44 | 1.59803 | -177.65684 | 30913 ft | 499 kts | 44° |
| 2026-04-20 09:44 | 1.64847 | -177.60906 | 30913 ft | 499 kts | 44° |
| 2026-04-20 09:45 | 1.69883 | -177.56135 | 30912 ft | 499 kts | 44° |
| 2026-04-20 09:45 | 1.74921 | -177.51363 | 30914 ft | 499 kts | 44° |
| 2026-04-20 09:46 | 1.79958 | -177.46591 | 30913 ft | 499 kts | 44° |
| 2026-04-20 09:46 | 1.84999 | -177.41814 | 30911 ft | 499 kts | 44° |
| 2026-04-20 09:47 | 1.90030 | -177.37047 | 30911 ft | 498 kts | 44° |
| 2026-04-20 09:47 | 1.95064 | -177.32276 | 30913 ft | 498 kts | 44° |
| 2026-04-20 09:48 | 2.00098 | -177.27505 | 30915 ft | 498 kts | 44° |
| 2026-04-20 09:48 | 2.05126 | -177.22739 | 30913 ft | 498 kts | 44° |
| 2026-04-20 09:49 | 2.10123 | -177.18003 | 30917 ft | 498 kts | 44° |
| 2026-04-20 09:49 | 2.15159 | -177.13229 | 30914 ft | 498 kts | 44° |
| 2026-04-20 09:50 | 2.20182 | -177.08466 | 30919 ft | 498 kts | 44° |
| 2026-04-20 09:50 | 2.25212 | -177.03697 | 30917 ft | 498 kts | 44° |
| 2026-04-20 09:51 | 2.30238 | -176.98931 | 30919 ft | 498 kts | 44° |
| 2026-04-20 09:51 | 2.35260 | -176.94169 | 30918 ft | 497 kts | 44° |
| 2026-04-20 09:52 | 2.40285 | -176.89403 | 30916 ft | 497 kts | 44° |
| 2026-04-20 09:52 | 2.45299 | -176.84646 | 30915 ft | 497 kts | 44° |
| 2026-04-20 09:53 | 2.50285 | -176.79916 | 30914 ft | 497 kts | 44° |
| 2026-04-20 09:53 | 2.55303 | -176.75155 | 30913 ft | 497 kts | 44° |
| 2026-04-20 09:54 | 2.60316 | -176.70398 | 30917 ft | 497 kts | 44° |
| 2026-04-20 09:54 | 2.65332 | -176.65638 | 30918 ft | 497 kts | 44° |
| 2026-04-20 09:55 | 2.70348 | -176.60877 | 30915 ft | 497 kts | 44° |
| 2026-04-20 09:55 | 2.75361 | -176.56119 | 30919 ft | 497 kts | 44° |
| 2026-04-20 09:56 | 2.80382 | -176.51352 | 30917 ft | 497 kts | 44° |
| 2026-04-20 09:56 | 2.85398 | -176.46589 | 30916 ft | 498 kts | 44° |
| 2026-04-20 09:57 | 2.90421 | -176.41820 | 30918 ft | 498 kts | 44° |
| 2026-04-20 09:57 | 2.95443 | -176.37051 | 30919 ft | 498 kts | 44° |
| 2026-04-20 09:58 | 3.00471 | -176.32275 | 30917 ft | 498 kts | 44° |
| 2026-04-20 09:58 | 3.05464 | -176.27532 | 30917 ft | 498 kts | 44° |
| 2026-04-20 09:59 | 3.10492 | -176.22754 | 30917 ft | 498 kts | 44° |
| 2026-04-20 09:59 | 3.15528 | -176.17970 | 30918 ft | 499 kts | 44° |
| 2026-04-20 10:00 | 3.20560 | -176.13187 | 30915 ft | 499 kts | 44° |
| 2026-04-20 10:00 | 3.25596 | -176.08400 | 30919 ft | 499 kts | 44° |
| 2026-04-20 10:01 | 3.30633 | -176.03612 | 30924 ft | 499 kts | 44° |
| 2026-04-20 10:01 | 3.35645 | -175.98846 | 30917 ft | 500 kts | 44° |
| 2026-04-20 10:02 | 3.40680 | -175.94059 | 30918 ft | 500 kts | 44° |
| 2026-04-20 10:02 | 3.45726 | -175.89260 | 30917 ft | 500 kts | 44° |
| 2026-04-20 10:03 | 3.50792 | -175.84441 | 30918 ft | 499 kts | 44° |
| 2026-04-20 10:03 | 3.55803 | -175.79673 | 30918 ft | 499 kts | 44° |
| 2026-04-20 10:04 | 3.60839 | -175.74882 | 30919 ft | 499 kts | 44° |
| 2026-04-20 10:04 | 3.65867 | -175.70097 | 30921 ft | 499 kts | 44° |
| 2026-04-20 10:05 | 3.70900 | -175.65307 | 30917 ft | 499 kts | 44° |
| 2026-04-20 10:05 | 3.75932 | -175.60516 | 30918 ft | 499 kts | 44° |
| 2026-04-20 10:06 | 3.80929 | -175.55758 | 30920 ft | 499 kts | 44° |
| 2026-04-20 10:06 | 3.85953 | -175.50973 | 30922 ft | 499 kts | 44° |
| 2026-04-20 10:07 | 3.90990 | -175.46175 | 30920 ft | 499 kts | 44° |
| 2026-04-20 10:07 | 3.96022 | -175.41381 | 30919 ft | 499 kts | 44° |
| 2026-04-20 10:08 | 4.01054 | -175.36585 | 30919 ft | 499 kts | 44° |
| 2026-04-20 10:08 | 4.06087 | -175.31790 | 30920 ft | 500 kts | 44° |
| 2026-04-20 10:09 | 4.11097 | -175.27017 | 30923 ft | 500 kts | 44° |
| 2026-04-20 10:09 | 4.16130 | -175.22219 | 30921 ft | 500 kts | 44° |
| 2026-04-20 10:10 | 4.21168 | -175.17415 | 30922 ft | 500 kts | 44° |
| 2026-04-20 10:10 | 4.26201 | -175.12614 | 30921 ft | 500 kts | 44° |
| 2026-04-20 10:11 | 4.31229 | -175.07817 | 30919 ft | 499 kts | 44° |
| 2026-04-20 10:11 | 4.36267 | -175.03010 | 30919 ft | 499 kts | 44° |
| 2026-04-20 10:12 | 4.41297 | -174.98209 | 30922 ft | 499 kts | 44° |
| 2026-04-20 10:12 | 4.46327 | -174.93408 | 30921 ft | 499 kts | 44° |
| 2026-04-20 10:13 | 4.51351 | -174.88610 | 30922 ft | 499 kts | 44° |
| 2026-04-20 10:13 | 4.56377 | -174.83811 | 30922 ft | 499 kts | 44° |
| 2026-04-20 10:14 | 4.61406 | -174.79008 | 30922 ft | 499 kts | 44° |
| 2026-04-20 10:14 | 4.66429 | -174.74209 | 30921 ft | 499 kts | 44° |
| 2026-04-20 10:15 | 4.71461 | -174.69401 | 30924 ft | 499 kts | 44° |
| 2026-04-20 10:15 | 4.76484 | -174.64600 | 30924 ft | 499 kts | 44° |
| 2026-04-20 10:16 | 4.80659 | -174.60609 | 30921 ft | 499 kts | 44° |
| 2026-04-20 10:16 | 4.85688 | -174.55800 | 30921 ft | 499 kts | 44° |
| 2026-04-20 10:17 | 4.90712 | -174.50996 | 30923 ft | 499 kts | 44° |
| 2026-04-20 10:17 | 4.95738 | -174.46189 | 30921 ft | 499 kts | 44° |
| 2026-04-20 10:18 | 5.00767 | -174.41377 | 30925 ft | 499 kts | 44° |
| 2026-04-20 10:18 | 5.05765 | -174.36594 | 30921 ft | 500 kts | 44° |
| 2026-04-20 10:19 | 5.10793 | -174.31781 | 30923 ft | 500 kts | 44° |
| 2026-04-20 10:19 | 5.15821 | -174.26968 | 30920 ft | 500 kts | 44° |
| 2026-04-20 10:20 | 5.20855 | -174.22147 | 30924 ft | 500 kts | 44° |
| 2026-04-20 10:20 | 5.25884 | -174.17329 | 30926 ft | 499 kts | 44° |
| 2026-04-20 10:21 | 5.30906 | -174.12519 | 30925 ft | 499 kts | 44° |
| 2026-04-20 10:21 | 5.35876 | -174.07755 | 30920 ft | 499 kts | 44° |
| 2026-04-20 10:22 | 5.40894 | -174.02946 | 30921 ft | 499 kts | 44° |
| 2026-04-20 10:22 | 5.45914 | -173.98133 | 30920 ft | 499 kts | 44° |
| 2026-04-20 10:23 | 5.50898 | -173.93353 | 30922 ft | 498 kts | 44° |
| 2026-04-20 10:23 | 5.55912 | -173.88543 | 30920 ft | 498 kts | 44° |
| 2026-04-20 10:24 | 5.60922 | -173.83737 | 30922 ft | 498 kts | 44° |
| 2026-04-20 10:24 | 5.65933 | -173.78928 | 30924 ft | 498 kts | 44° |
| 2026-04-20 10:25 | 5.70944 | -173.74117 | 30919 ft | 498 kts | 44° |
| 2026-04-20 10:25 | 5.75960 | -173.69301 | 30917 ft | 498 kts | 44° |
| 2026-04-20 10:26 | 5.80967 | -173.64492 | 30921 ft | 498 kts | 44° |
| 2026-04-20 10:26 | 5.85969 | -173.59687 | 30922 ft | 498 kts | 44° |
| 2026-04-20 10:27 | 5.90933 | -173.54916 | 30920 ft | 498 kts | 44° |
| 2026-04-20 10:27 | 5.95937 | -173.50107 | 30917 ft | 497 kts | 44° |
| 2026-04-20 10:28 | 6.00941 | -173.45296 | 30918 ft | 497 kts | 44° |
| 2026-04-20 10:28 | 6.05943 | -173.40485 | 30918 ft | 497 kts | 44° |
| 2026-04-20 10:29 | 6.10942 | -173.35677 | 30918 ft | 497 kts | 44° |
| 2026-04-20 10:29 | 6.15910 | -173.30897 | 30920 ft | 497 kts | 44° |
| 2026-04-20 10:30 | 6.20911 | -173.26083 | 30918 ft | 497 kts | 44° |
| 2026-04-20 10:30 | 6.25902 | -173.21277 | 30918 ft | 497 kts | 44° |
| 2026-04-20 10:31 | 6.30901 | -173.16464 | 30918 ft | 496 kts | 44° |
| 2026-04-20 10:31 | 6.35889 | -173.11659 | 30918 ft | 496 kts | 44° |
| 2026-04-20 10:32 | 6.40875 | -173.06855 | 30923 ft | 496 kts | 44° |
| 2026-04-20 10:32 | 6.45861 | -173.02049 | 30920 ft | 496 kts | 44° |
| 2026-04-20 10:33 | 6.50841 | -172.97248 | 30919 ft | 496 kts | 44° |
| 2026-04-20 10:33 | 6.55825 | -172.92441 | 30917 ft | 496 kts | 44° |
| 2026-04-20 10:34 | 6.60785 | -172.87656 | 30915 ft | 496 kts | 44° |
| 2026-04-20 10:35 | 6.68262 | -172.80441 | 30919 ft | 496 kts | 44° |
| 2026-04-20 10:35 | 6.73251 | -172.75624 | 30920 ft | 496 kts | 44° |
| 2026-04-20 10:36 | 6.78203 | -172.70842 | 30917 ft | 496 kts | 44° |
| 2026-04-20 10:36 | 6.83185 | -172.66031 | 30919 ft | 496 kts | 44° |
| 2026-04-20 10:37 | 6.88169 | -172.61214 | 30916 ft | 496 kts | 44° |
| 2026-04-20 10:37 | 6.93148 | -172.56401 | 30915 ft | 496 kts | 44° |
| 2026-04-20 10:38 | 6.98124 | -172.51590 | 30912 ft | 495 kts | 44° |
| 2026-04-20 10:38 | 7.03097 | -172.46781 | 30917 ft | 495 kts | 44° |
| 2026-04-20 10:39 | 7.08062 | -172.41978 | 30917 ft | 495 kts | 44° |
| 2026-04-20 10:39 | 7.13017 | -172.37182 | 30916 ft | 502 kts | 44° |
| 2026-04-20 10:40 | 7.18080 | -172.32281 | 30917 ft | 505 kts | 44° |
| 2026-04-20 10:40 | 7.23144 | -172.27377 | 30913 ft | 504 kts | 44° |
| 2026-04-20 10:41 | 7.28193 | -172.22486 | 30914 ft | 502 kts | 44° |
| 2026-04-20 10:41 | 7.33228 | -172.17606 | 30918 ft | 502 kts | 44° |
| 2026-04-20 10:42 | 7.38225 | -172.12763 | 30919 ft | 501 kts | 44° |
| 2026-04-20 10:42 | 7.43252 | -172.07889 | 30916 ft | 501 kts | 44° |
| 2026-04-20 10:43 | 7.48278 | -172.03014 | 30917 ft | 501 kts | 44° |
| 2026-04-20 10:43 | 7.53305 | -171.98136 | 30917 ft | 502 kts | 44° |
| 2026-04-20 10:44 | 7.58340 | -171.93249 | 30919 ft | 503 kts | 44° |
| 2026-04-20 10:44 | 7.63376 | -171.88359 | 30918 ft | 503 kts | 44° |
| 2026-04-20 10:45 | 7.68414 | -171.83465 | 30919 ft | 503 kts | 44° |
| 2026-04-20 10:45 | 7.73458 | -171.78564 | 30916 ft | 503 kts | 44° |
| 2026-04-20 10:46 | 7.78500 | -171.73663 | 30916 ft | 503 kts | 44° |
| 2026-04-20 10:46 | 7.83538 | -171.68764 | 30916 ft | 503 kts | 44° |
| 2026-04-20 10:47 | 7.88574 | -171.63866 | 30917 ft | 503 kts | 44° |
| 2026-04-20 10:47 | 7.93608 | -171.58968 | 30916 ft | 502 kts | 44° |
| 2026-04-20 10:48 | 7.98643 | -171.54067 | 30920 ft | 502 kts | 44° |
| 2026-04-20 10:48 | 8.03669 | -171.49173 | 30915 ft | 502 kts | 44° |
| 2026-04-20 10:49 | 8.08699 | -171.44274 | 30915 ft | 502 kts | 44° |
| 2026-04-20 10:49 | 8.13722 | -171.39379 | 30917 ft | 502 kts | 44° |
| 2026-04-20 10:50 | 8.18751 | -171.34476 | 30918 ft | 502 kts | 44° |
| 2026-04-20 10:50 | 8.23709 | -171.29642 | 30915 ft | 502 kts | 44° |
| 2026-04-20 10:51 | 8.28701 | -171.24771 | 30916 ft | 502 kts | 43° |
| 2026-04-20 10:51 | 8.33734 | -171.19860 | 30918 ft | 502 kts | 43° |
| 2026-04-20 10:52 | 8.38761 | -171.14952 | 30917 ft | 503 kts | 43° |
| 2026-04-20 10:52 | 8.43787 | -171.10044 | 30916 ft | 503 kts | 43° |
| 2026-04-20 10:53 | 8.48785 | -171.05161 | 30919 ft | 503 kts | 43° |
| 2026-04-20 10:53 | 8.53820 | -171.00240 | 30917 ft | 503 kts | 43° |
| 2026-04-20 10:54 | 8.58849 | -170.95323 | 30921 ft | 503 kts | 43° |
| 2026-04-20 10:54 | 8.63875 | -170.90406 | 30917 ft | 503 kts | 43° |
| 2026-04-20 10:55 | 8.68902 | -170.85487 | 30916 ft | 503 kts | 43° |
| 2026-04-20 10:55 | 8.73930 | -170.80564 | 30922 ft | 503 kts | 43° |
| 2026-04-20 10:56 | 8.78952 | -170.75646 | 30919 ft | 503 kts | 43° |
| 2026-04-20 10:56 | 8.83982 | -170.70717 | 30920 ft | 503 kts | 43° |
| 2026-04-20 10:57 | 8.89016 | -170.65783 | 30920 ft | 503 kts | 43° |
| 2026-04-20 10:57 | 8.94043 | -170.60857 | 30917 ft | 503 kts | 43° |
| 2026-04-20 10:58 | 8.99038 | -170.55960 | 30923 ft | 503 kts | 43° |
| 2026-04-20 10:58 | 9.04064 | -170.51030 | 30925 ft | 503 kts | 43° |
| 2026-04-20 10:59 | 9.09099 | -170.46088 | 30923 ft | 503 kts | 43° |
| 2026-04-20 10:59 | 9.14123 | -170.41155 | 30925 ft | 503 kts | 43° |
| 2026-04-20 11:00 | 9.19149 | -170.36218 | 30920 ft | 503 kts | 43° |
| 2026-04-20 11:00 | 9.24172 | -170.31281 | 30917 ft | 503 kts | 43° |
| 2026-04-20 11:01 | 9.29197 | -170.26340 | 30922 ft | 504 kts | 43° |
| 2026-04-20 11:01 | 9.34224 | -170.21396 | 30931 ft | 504 kts | 43° |
| 2026-04-20 11:02 | 9.39246 | -170.16454 | 30927 ft | 504 kts | 43° |
| 2026-04-20 11:02 | 9.43458 | -170.12307 | 30924 ft | 504 kts | 43° |
| 2026-04-20 11:03 | 9.48480 | -170.07362 | 30924 ft | 504 kts | 43° |
| 2026-04-20 11:03 | 9.53474 | -170.02441 | 30923 ft | 503 kts | 43° |
| 2026-04-20 11:04 | 9.58495 | -169.97493 | 30923 ft | 503 kts | 43° |
| 2026-04-20 11:04 | 9.63514 | -169.92543 | 30925 ft | 503 kts | 43° |
| 2026-04-20 11:05 | 9.68540 | -169.87585 | 30925 ft | 503 kts | 43° |
| 2026-04-20 11:05 | 9.73551 | -169.82640 | 30918 ft | 503 kts | 43° |
| 2026-04-20 11:06 | 9.78572 | -169.77682 | 30928 ft | 503 kts | 43° |
| 2026-04-20 11:06 | 9.83588 | -169.72727 | 30927 ft | 503 kts | 43° |
| 2026-04-20 11:07 | 9.88602 | -169.67772 | 30927 ft | 503 kts | 43° |
| 2026-04-20 11:07 | 9.93623 | -169.62808 | 30926 ft | 504 kts | 43° |
| 2026-04-20 11:08 | 9.98612 | -169.57873 | 30928 ft | 504 kts | 43° |
| 2026-04-20 11:08 | 10.03626 | -169.52911 | 30929 ft | 504 kts | 43° |
| 2026-04-20 11:09 | 10.08648 | -169.47939 | 30933 ft | 504 kts | 43° |
| 2026-04-20 11:09 | 10.13673 | -169.42962 | 30930 ft | 504 kts | 43° |
| 2026-04-20 11:10 | 10.18670 | -169.38011 | 30931 ft | 505 kts | 43° |
| 2026-04-20 11:10 | 10.23694 | -169.33029 | 30929 ft | 505 kts | 43° |
| 2026-04-20 11:11 | 10.28724 | -169.28041 | 30931 ft | 505 kts | 43° |
| 2026-04-20 11:11 | 10.33750 | -169.23052 | 30931 ft | 505 kts | 43° |
| 2026-04-20 11:12 | 10.38781 | -169.18058 | 30920 ft | 505 kts | 43° |
| 2026-04-20 11:12 | 10.43814 | -169.13059 | 30937 ft | 505 kts | 43° |
| 2026-04-20 11:13 | 10.48843 | -169.08060 | 30940 ft | 506 kts | 43° |
| 2026-04-20 11:13 | 10.53869 | -169.03064 | 30943 ft | 506 kts | 43° |
| 2026-04-20 11:14 | 10.58897 | -168.98062 | 30927 ft | 506 kts | 43° |
| 2026-04-20 11:14 | 10.63928 | -168.93055 | 30927 ft | 506 kts | 43° |
| 2026-04-20 11:15 | 10.68924 | -168.88080 | 30930 ft | 506 kts | 43° |
| 2026-04-20 11:15 | 10.73953 | -168.83071 | 30945 ft | 506 kts | 43° |
| 2026-04-20 11:16 | 10.78987 | -168.78053 | 30937 ft | 507 kts | 43° |
| 2026-04-20 11:16 | 10.84019 | -168.73036 | 30931 ft | 507 kts | 43° |
| 2026-04-20 11:17 | 10.89054 | -168.68013 | 30943 ft | 507 kts | 43° |
| 2026-04-20 11:17 | 10.94089 | -168.62987 | 30943 ft | 507 kts | 43° |
| 2026-04-20 11:18 | 10.99120 | -168.57962 | 30941 ft | 507 kts | 43° |
| 2026-04-20 11:18 | 11.04158 | -168.52929 | 30943 ft | 507 kts | 43° |
| 2026-04-20 11:19 | 11.09199 | -168.47889 | 30943 ft | 507 kts | 43° |
| 2026-04-20 11:19 | 11.14212 | -168.42876 | 30941 ft | 508 kts | 43° |
| 2026-04-20 11:20 | 11.19253 | -168.37831 | 30940 ft | 508 kts | 43° |
| 2026-04-20 11:20 | 11.24290 | -168.32788 | 30941 ft | 508 kts | 43° |
| 2026-04-20 11:21 | 11.29329 | -168.27741 | 30940 ft | 508 kts | 43° |
| 2026-04-20 11:21 | 11.34363 | -168.22695 | 30941 ft | 508 kts | 43° |
| 2026-04-20 11:22 | 11.39397 | -168.17648 | 30947 ft | 508 kts | 43° |
| 2026-04-20 11:22 | 11.44425 | -168.12602 | 30944 ft | 508 kts | 43° |
| 2026-04-20 11:23 | 11.49459 | -168.07550 | 30943 ft | 508 kts | 43° |
| 2026-04-20 11:23 | 11.54466 | -168.02520 | 30944 ft | 508 kts | 43° |
| 2026-04-20 11:24 | 11.59502 | -167.97459 | 30950 ft | 508 kts | 43° |
| 2026-04-20 11:24 | 11.64536 | -167.92399 | 30944 ft | 508 kts | 43° |
| 2026-04-20 11:25 | 11.69569 | -167.87335 | 30946 ft | 508 kts | 43° |
| 2026-04-20 11:25 | 11.74600 | -167.82272 | 30949 ft | 508 kts | 43° |
| 2026-04-20 11:26 | 11.79629 | -167.77208 | 30945 ft | 508 kts | 43° |
| 2026-04-20 11:26 | 11.84668 | -167.72130 | 30950 ft | 508 kts | 43° |
| 2026-04-20 11:27 | 11.89699 | -167.67058 | 30944 ft | 508 kts | 42° |
| 2026-04-20 11:27 | 11.94735 | -167.61978 | 30947 ft | 508 kts | 42° |
| 2026-04-20 11:28 | 11.99766 | -167.56900 | 30946 ft | 508 kts | 42° |
| 2026-04-20 11:28 | 12.04800 | -167.51816 | 30946 ft | 508 kts | 42° |
| 2026-04-20 11:29 | 12.09830 | -167.46735 | 30947 ft | 509 kts | 42° |
| 2026-04-20 11:29 | 12.14832 | -167.41677 | 30949 ft | 509 kts | 42° |
| 2026-04-20 11:30 | 12.19871 | -167.36580 | 30950 ft | 509 kts | 42° |
| 2026-04-20 11:30 | 12.24906 | -167.31484 | 30950 ft | 509 kts | 42° |
| 2026-04-20 11:31 | 12.29939 | -167.26388 | 30953 ft | 509 kts | 42° |
| 2026-04-20 11:31 | 12.34976 | -167.21284 | 30950 ft | 510 kts | 42° |
| 2026-04-20 11:32 | 12.40010 | -167.16180 | 30950 ft | 510 kts | 42° |
| 2026-04-20 11:32 | 12.45048 | -167.11069 | 30947 ft | 510 kts | 42° |
| 2026-04-20 11:33 | 12.50089 | -167.05952 | 30950 ft | 510 kts | 42° |
| 2026-04-20 11:33 | 12.55132 | -167.00831 | 30953 ft | 510 kts | 42° |
| 2026-04-20 11:34 | 12.60140 | -166.95742 | 30951 ft | 510 kts | 42° |
| 2026-04-20 11:34 | 12.65179 | -166.90618 | 30950 ft | 511 kts | 42° |
| 2026-04-20 11:35 | 12.70223 | -166.85486 | 30952 ft | 511 kts | 42° |
| 2026-04-20 11:35 | 12.75268 | -166.80351 | 30954 ft | 511 kts | 42° |
| 2026-04-20 11:36 | 12.80310 | -166.75214 | 30958 ft | 511 kts | 42° |
| 2026-04-20 11:36 | 12.85346 | -166.70082 | 30953 ft | 511 kts | 42° |
| 2026-04-20 11:37 | 12.90387 | -166.64941 | 30954 ft | 511 kts | 42° |
| 2026-04-20 11:37 | 12.97941 | -166.57231 | 30958 ft | 511 kts | 42° |
| 2026-04-20 11:38 | 13.02942 | -166.52123 | 30960 ft | 511 kts | 42° |
| 2026-04-20 11:38 | 13.07974 | -166.46981 | 30956 ft | 511 kts | 42° |
| 2026-04-20 11:39 | 13.13011 | -166.41830 | 30960 ft | 511 kts | 42° |
| 2026-04-20 11:39 | 13.18039 | -166.36685 | 30949 ft | 511 kts | 42° |
| 2026-04-20 11:40 | 13.23068 | -166.31535 | 30955 ft | 510 kts | 42° |
| 2026-04-20 11:40 | 13.28099 | -166.26381 | 30954 ft | 510 kts | 42° |
| 2026-04-20 11:41 | 13.33121 | -166.21233 | 30952 ft | 510 kts | 42° |
| 2026-04-20 11:41 | 13.38142 | -166.16082 | 30953 ft | 510 kts | 42° |
| 2026-04-20 11:42 | 13.43168 | -166.10924 | 30959 ft | 510 kts | 42° |
| 2026-04-20 11:42 | 13.48185 | -166.05771 | 30956 ft | 510 kts | 42° |
| 2026-04-20 11:43 | 13.53169 | -166.00648 | 30969 ft | 510 kts | 42° |
| 2026-04-20 11:43 | 13.58192 | -165.95482 | 30954 ft | 510 kts | 42° |
| 2026-04-20 11:44 | 13.63209 | -165.90318 | 30956 ft | 510 kts | 42° |
| 2026-04-20 11:44 | 13.68228 | -165.85149 | 30958 ft | 510 kts | 42° |
| 2026-04-20 11:45 | 13.73244 | -165.79982 | 30956 ft | 510 kts | 42° |
| 2026-04-20 11:45 | 13.78267 | -165.74807 | 30962 ft | 510 kts | 42° |
| 2026-04-20 11:46 | 13.83256 | -165.69662 | 30964 ft | 510 kts | 42° |
| 2026-04-20 11:46 | 13.88268 | -165.64488 | 30966 ft | 510 kts | 42° |
| 2026-04-20 11:47 | 13.92438 | -165.60181 | 30967 ft | 511 kts | 42° |
| 2026-04-20 11:47 | 13.97453 | -165.54997 | 30965 ft | 511 kts | 42° |
| 2026-04-20 11:48 | 14.02466 | -165.49814 | 30964 ft | 511 kts | 42° |
| 2026-04-20 11:48 | 14.07480 | -165.44624 | 30967 ft | 511 kts | 42° |
| 2026-04-20 11:49 | 14.12380 | -165.39550 | 30969 ft | 511 kts | 42° |
| 2026-04-20 11:49 | 14.17398 | -165.34350 | 30968 ft | 511 kts | 42° |
| 2026-04-20 11:50 | 14.22411 | -165.29152 | 30967 ft | 511 kts | 42° |
| 2026-04-20 11:50 | 14.27389 | -165.23987 | 30967 ft | 511 kts | 42° |
| 2026-04-20 11:51 | 14.32397 | -165.18787 | 30971 ft | 511 kts | 42° |
| 2026-04-20 11:51 | 14.37411 | -165.13578 | 30972 ft | 511 kts | 42° |
| 2026-04-20 11:52 | 14.42424 | -165.08366 | 30972 ft | 511 kts | 42° |
| 2026-04-20 11:52 | 14.47435 | -165.03152 | 30971 ft | 511 kts | 42° |
| 2026-04-20 11:53 | 14.52442 | -164.97939 | 30974 ft | 511 kts | 42° |
| 2026-04-20 11:53 | 14.57457 | -164.92714 | 30972 ft | 512 kts | 42° |
| 2026-04-20 11:54 | 14.62462 | -164.87496 | 30975 ft | 512 kts | 42° |
| 2026-04-20 11:54 | 14.67472 | -164.82270 | 30977 ft | 512 kts | 42° |
| 2026-04-20 11:55 | 14.72460 | -164.77062 | 30975 ft | 512 kts | 42° |
| 2026-04-20 11:55 | 14.77471 | -164.71827 | 30977 ft | 512 kts | 42° |
| 2026-04-20 11:56 | 14.82480 | -164.66591 | 30978 ft | 512 kts | 42° |
| 2026-04-20 11:56 | 14.87486 | -164.61354 | 30979 ft | 512 kts | 42° |
| 2026-04-20 11:57 | 14.92496 | -164.56109 | 30980 ft | 512 kts | 42° |
| 2026-04-20 11:57 | 14.97507 | -164.50859 | 30977 ft | 512 kts | 42° |
| 2026-04-20 11:58 | 15.02509 | -164.45615 | 30978 ft | 512 kts | 42° |
| 2026-04-20 11:58 | 15.07489 | -164.40391 | 30976 ft | 513 kts | 42° |
| 2026-04-20 11:59 | 15.12500 | -164.35130 | 30979 ft | 513 kts | 42° |
| 2026-04-20 11:59 | 15.17503 | -164.29873 | 30977 ft | 513 kts | 42° |
| 2026-04-20 12:00 | 15.22514 | -164.24605 | 30977 ft | 513 kts | 42° |
| 2026-04-20 12:00 | 15.27520 | -164.19338 | 30985 ft | 513 kts | 42° |
| 2026-04-20 12:01 | 15.32526 | -164.14067 | 30988 ft | 513 kts | 42° |
| 2026-04-20 12:01 | 15.37505 | -164.08821 | 30987 ft | 514 kts | 42° |
| 2026-04-20 12:02 | 15.42461 | -164.03595 | 30986 ft | 514 kts | 42° |
| 2026-04-20 12:02 | 15.47480 | -163.98299 | 30986 ft | 513 kts | 42° |
| 2026-04-20 12:03 | 15.52459 | -163.93042 | 30989 ft | 513 kts | 42° |
| 2026-04-20 12:03 | 15.57459 | -163.87757 | 30991 ft | 513 kts | 42° |
| 2026-04-20 12:04 | 15.62467 | -163.82462 | 30990 ft | 513 kts | 42° |
| 2026-04-20 12:04 | 15.67463 | -163.77174 | 30990 ft | 513 kts | 42° |
| 2026-04-20 12:05 | 15.72465 | -163.71877 | 30993 ft | 513 kts | 42° |
| 2026-04-20 12:05 | 15.77461 | -163.66582 | 30991 ft | 513 kts | 42° |
| 2026-04-20 12:06 | 15.82455 | -163.61284 | 30991 ft | 513 kts | 42° |
| 2026-04-20 12:06 | 15.87446 | -163.55987 | 30992 ft | 513 kts | 42° |
| 2026-04-20 12:07 | 15.92408 | -163.50717 | 30997 ft | 513 kts | 42° |
| 2026-04-20 12:07 | 15.97399 | -163.45410 | 30994 ft | 513 kts | 42° |
| 2026-04-20 12:08 | 16.02385 | -163.40106 | 30994 ft | 513 kts | 42° |
| 2026-04-20 12:08 | 16.07376 | -163.34792 | 30995 ft | 513 kts | 42° |
| 2026-04-20 12:09 | 16.12369 | -163.29471 | 30996 ft | 513 kts | 42° |
| 2026-04-20 12:09 | 16.17352 | -163.24158 | 30995 ft | 513 kts | 42° |
| 2026-04-20 12:10 | 16.22365 | -163.18808 | 30995 ft | 513 kts | 42° |
| 2026-04-20 12:10 | 16.27309 | -163.13528 | 30998 ft | 512 kts | 42° |
| 2026-04-20 12:11 | 16.32286 | -163.08209 | 30995 ft | 512 kts | 42° |
| 2026-04-20 12:11 | 16.37263 | -163.02885 | 30999 ft | 512 kts | 42° |
| 2026-04-20 12:12 | 16.42239 | -162.97559 | 30999 ft | 512 kts | 42° |
| 2026-04-20 12:12 | 16.47205 | -162.92239 | 31002 ft | 512 kts | 42° |
| 2026-04-20 12:13 | 16.52174 | -162.86911 | 30999 ft | 512 kts | 42° |
| 2026-04-20 12:13 | 16.57111 | -162.81614 | 31002 ft | 512 kts | 42° |
| 2026-04-20 12:14 | 16.62070 | -162.76289 | 31001 ft | 512 kts | 42° |
| 2026-04-20 12:14 | 16.67032 | -162.70957 | 31002 ft | 512 kts | 42° |
| 2026-04-20 12:15 | 16.71925 | -162.65694 | 30999 ft | 512 kts | 42° |
| 2026-04-20 12:15 | 16.76881 | -162.60360 | 31002 ft | 512 kts | 42° |
| 2026-04-20 12:16 | 16.81832 | -162.55026 | 31004 ft | 511 kts | 42° |
| 2026-04-20 12:16 | 16.86782 | -162.49690 | 31003 ft | 511 kts | 42° |
| 2026-04-20 12:17 | 16.91739 | -162.44342 | 31005 ft | 512 kts | 42° |
| 2026-04-20 12:17 | 16.96650 | -162.39039 | 31004 ft | 512 kts | 42° |
| 2026-04-20 12:18 | 17.01595 | -162.33694 | 31003 ft | 512 kts | 42° |
| 2026-04-20 12:18 | 17.06547 | -162.28339 | 31004 ft | 512 kts | 42° |
| 2026-04-20 12:19 | 17.11491 | -162.22987 | 31009 ft | 511 kts | 42° |
| 2026-04-20 12:19 | 17.16435 | -162.17631 | 30995 ft | 511 kts | 42° |
| 2026-04-20 12:20 | 17.21378 | -162.12272 | 30999 ft | 511 kts | 42° |
| 2026-04-20 12:20 | 17.26310 | -162.06920 | 31004 ft | 511 kts | 42° |
| 2026-04-20 12:21 | 17.31216 | -162.01592 | 31004 ft | 511 kts | 42° |
| 2026-04-20 12:21 | 17.36151 | -161.96228 | 31008 ft | 511 kts | 42° |
| 2026-04-20 12:22 | 17.41080 | -161.90866 | 31012 ft | 511 kts | 42° |
| 2026-04-20 12:22 | 17.46007 | -161.85502 | 31005 ft | 511 kts | 42° |
| 2026-04-20 12:23 | 17.50932 | -161.80136 | 31008 ft | 511 kts | 42° |
| 2026-04-20 12:23 | 17.55855 | -161.74768 | 31009 ft | 510 kts | 42° |
| 2026-04-20 12:24 | 17.60781 | -161.69391 | 31010 ft | 510 kts | 42° |
| 2026-04-20 12:24 | 17.65696 | -161.64022 | 31004 ft | 510 kts | 43° |
| 2026-04-20 12:25 | 17.70606 | -161.58654 | 31008 ft | 510 kts | 43° |
| 2026-04-20 12:25 | 17.75483 | -161.53318 | 31008 ft | 510 kts | 43° |
| 2026-04-20 12:26 | 17.80389 | -161.47945 | 31007 ft | 510 kts | 43° |
| 2026-04-20 12:26 | 17.85295 | -161.42568 | 31011 ft | 509 kts | 43° |
| 2026-04-20 12:27 | 17.90197 | -161.37190 | 31014 ft | 509 kts | 43° |
| 2026-04-20 12:27 | 17.95101 | -161.31806 | 31014 ft | 509 kts | 43° |
| 2026-04-20 12:28 | 17.99993 | -161.26430 | 31012 ft | 509 kts | 43° |
| 2026-04-20 12:28 | 18.04809 | -161.21133 | 31016 ft | 509 kts | 43° |
| 2026-04-20 12:29 | 18.09705 | -161.15744 | 31015 ft | 509 kts | 43° |
| 2026-04-20 12:29 | 18.14596 | -161.10355 | 31016 ft | 509 kts | 43° |
| 2026-04-20 12:30 | 18.19453 | -161.04999 | 31017 ft | 509 kts | 43° |
| 2026-04-20 12:30 | 18.24335 | -160.99611 | 31020 ft | 508 kts | 43° |
| 2026-04-20 12:31 | 18.29210 | -160.94226 | 31014 ft | 508 kts | 43° |
| 2026-04-20 12:31 | 18.34080 | -160.88840 | 31018 ft | 507 kts | 43° |
| 2026-04-20 12:32 | 18.38127 | -160.84362 | 31017 ft | 507 kts | 43° |
| 2026-04-20 12:32 | 18.44234 | -160.78635 | 31019 ft | 500 kts | 32° |
| 2026-04-20 12:33 | 18.48937 | -160.75094 | 31024 ft | 499 kts | 31° |
| 2026-04-20 12:33 | 18.54606 | -160.70855 | 31024 ft | 500 kts | 31° |
| 2026-04-20 12:34 | 18.60263 | -160.66577 | 31017 ft | 500 kts | 31° |
| 2026-04-20 12:34 | 18.65866 | -160.62304 | 31024 ft | 500 kts | 32° |
| 2026-04-20 12:35 | 18.71502 | -160.57993 | 31026 ft | 500 kts | 32° |
| 2026-04-20 12:35 | 18.77138 | -160.53678 | 31018 ft | 500 kts | 32° |
| 2026-04-20 12:36 | 18.82770 | -160.49366 | 31021 ft | 499 kts | 32° |
| 2026-04-20 12:36 | 18.88395 | -160.45057 | 31022 ft | 499 kts | 32° |
| 2026-04-20 12:37 | 18.94008 | -160.40754 | 31022 ft | 498 kts | 32° |
| 2026-04-20 12:37 | 18.99613 | -160.36452 | 31022 ft | 498 kts | 32° |
| 2026-04-20 12:38 | 19.05210 | -160.32154 | 31021 ft | 497 kts | 32° |
| 2026-04-20 12:38 | 19.10805 | -160.27853 | 31023 ft | 497 kts | 32° |
| 2026-04-20 12:39 | 19.19155 | -160.21427 | 31026 ft | 497 kts | 32° |
| 2026-04-20 12:40 | 19.24747 | -160.17119 | 31025 ft | 497 kts | 32° |
| 2026-04-20 12:40 | 19.30339 | -160.12808 | 31026 ft | 497 kts | 32° |
| 2026-04-20 12:41 | 19.35929 | -160.08494 | 31022 ft | 497 kts | 32° |
| 2026-04-20 12:41 | 19.41522 | -160.04174 | 31020 ft | 497 kts | 32° |
| 2026-04-20 12:42 | 19.47075 | -159.99881 | 31024 ft | 497 kts | 32° |
| 2026-04-20 12:42 | 19.52660 | -159.95560 | 31022 ft | 497 kts | 32° |
| 2026-04-20 12:43 | 19.58241 | -159.91238 | 31024 ft | 497 kts | 32° |
| 2026-04-20 12:43 | 19.63826 | -159.86909 | 31017 ft | 497 kts | 32° |
| 2026-04-20 12:44 | 19.69407 | -159.82580 | 31021 ft | 496 kts | 32° |
| 2026-04-20 12:44 | 19.74994 | -159.78241 | 31020 ft | 496 kts | 32° |
| 2026-04-20 12:45 | 19.80564 | -159.73913 | 31021 ft | 496 kts | 32° |
| 2026-04-20 12:45 | 19.86131 | -159.69583 | 31022 ft | 496 kts | 32° |
| 2026-04-20 12:46 | 19.91697 | -159.65250 | 31026 ft | 496 kts | 32° |
| 2026-04-20 12:46 | 19.97220 | -159.60946 | 31029 ft | 496 kts | 32° |
| 2026-04-20 12:47 | 20.02782 | -159.56609 | 31028 ft | 495 kts | 32° |
| 2026-04-20 12:47 | 20.08371 | -159.52245 | 31025 ft | 495 kts | 32° |
| 2026-04-20 12:48 | 20.13875 | -159.47945 | 31025 ft | 494 kts | 32° |
| 2026-04-20 12:48 | 20.19444 | -159.43589 | 31025 ft | 493 kts | 32° |
| 2026-04-20 12:49 | 20.24933 | -159.39293 | 31025 ft | 492 kts | 32° |
| 2026-04-20 12:49 | 20.30437 | -159.34982 | 31025 ft | 491 kts | 32° |
| 2026-04-20 12:50 | 20.35940 | -159.30666 | 31024 ft | 491 kts | 32° |
| 2026-04-20 12:50 | 20.41440 | -159.26351 | 31026 ft | 491 kts | 32° |
| 2026-04-20 12:51 | 20.46944 | -159.22027 | 31026 ft | 491 kts | 32° |
| 2026-04-20 12:51 | 20.52440 | -159.17706 | 31026 ft | 491 kts | 32° |
| 2026-04-20 12:52 | 20.57937 | -159.13380 | 31029 ft | 491 kts | 32° |
| 2026-04-20 12:52 | 20.63467 | -159.09027 | 31098 ft | 502 kts | 33° |
| 2026-04-20 12:52 | 20.66306 | -159.06793 | 31206 ft | 513 kts | 33° |
| 2026-04-20 12:53 | 20.69200 | -159.04515 | 31382 ft | 521 kts | 33° |
| 2026-04-20 12:53 | 20.72141 | -159.02195 | 31619 ft | 527 kts | 33° |
| 2026-04-20 12:53 | 20.75101 | -158.99858 | 31951 ft | 530 kts | 33° |
| 2026-04-20 12:53 | 20.78030 | -158.97541 | 32344 ft | 532 kts | 32° |
| 2026-04-20 12:54 | 20.81043 | -158.95158 | 32731 ft | 533 kts | 32° |
| 2026-04-20 12:54 | 20.84037 | -158.92789 | 33099 ft | 535 kts | 32° |
| 2026-04-20 12:54 | 20.86994 | -158.90449 | 33478 ft | 537 kts | 32° |
| 2026-04-20 12:54 | 20.90002 | -158.88068 | 33869 ft | 538 kts | 32° |
| 2026-04-20 12:55 | 20.93015 | -158.85682 | 34207 ft | 540 kts | 32° |
| 2026-04-20 12:55 | 20.96035 | -158.83289 | 34556 ft | 540 kts | 32° |
| 2026-04-20 12:55 | 20.99041 | -158.80906 | 34924 ft | 540 kts | 32° |
| 2026-04-20 12:55 | 21.02061 | -158.78510 | 35269 ft | 540 kts | 32° |
| 2026-04-20 12:56 | 21.05078 | -158.76117 | 35591 ft | 541 kts | 32° |
| 2026-04-20 12:56 | 21.08106 | -158.73713 | 35915 ft | 541 kts | 32° |
| 2026-04-20 12:56 | 21.11135 | -158.71308 | 36222 ft | 542 kts | 32° |
| 2026-04-20 12:56 | 21.14168 | -158.68897 | 36527 ft | 543 kts | 32° |
| 2026-04-20 12:57 | 21.17201 | -158.66486 | 36820 ft | 543 kts | 32° |
| 2026-04-20 12:57 | 21.20243 | -158.64066 | 36998 ft | 545 kts | 32° |
| 2026-04-20 12:57 | 21.23302 | -158.61633 | 37031 ft | 547 kts | 32° |
| 2026-04-20 12:58 | 21.29351 | -158.56812 | 37026 ft | 542 kts | 32° |
| 2026-04-20 12:58 | 21.35389 | -158.51994 | 37035 ft | 539 kts | 32° |
| 2026-04-20 12:59 | 21.41377 | -158.47214 | 37037 ft | 537 kts | 32° |
| 2026-04-20 12:59 | 21.47382 | -158.42417 | 37038 ft | 536 kts | 32° |
| 2026-04-20 13:00 | 21.53379 | -158.37622 | 37044 ft | 537 kts | 32° |
| 2026-04-20 13:00 | 21.59365 | -158.32830 | 37045 ft | 538 kts | 32° |
| 2026-04-20 13:01 | 21.65371 | -158.28016 | 37052 ft | 539 kts | 32° |
| 2026-04-20 13:01 | 21.71388 | -158.23188 | 37050 ft | 540 kts | 32° |
| 2026-04-20 13:02 | 21.77416 | -158.18346 | 37042 ft | 541 kts | 32° |
| 2026-04-20 13:02 | 21.83412 | -158.13524 | 37028 ft | 541 kts | 32° |
| 2026-04-20 13:03 | 21.89432 | -158.08677 | 37026 ft | 541 kts | 32° |
| 2026-04-20 13:03 | 21.95466 | -158.03813 | 37024 ft | 540 kts | 32° |
| 2026-04-20 13:04 | 22.01484 | -157.98958 | 37021 ft | 540 kts | 32° |
| 2026-04-20 13:04 | 22.07488 | -157.94109 | 37020 ft | 539 kts | 32° |
| 2026-04-20 13:05 | 22.13481 | -157.89264 | 37024 ft | 538 kts | 32° |
| 2026-04-20 13:05 | 22.19438 | -157.84442 | 37016 ft | 538 kts | 32° |
| 2026-04-20 13:06 | 22.25436 | -157.79582 | 37024 ft | 538 kts | 32° |
| 2026-04-20 13:06 | 22.31421 | -157.74728 | 37027 ft | 537 kts | 32° |
| 2026-04-20 13:07 | 22.37394 | -157.69877 | 37022 ft | 537 kts | 32° |
| 2026-04-20 13:07 | 22.43368 | -157.65020 | 37018 ft | 537 kts | 32° |
| 2026-04-20 13:08 | 22.49343 | -157.60158 | 37031 ft | 537 kts | 32° |
| 2026-04-20 13:08 | 22.55282 | -157.55319 | 37016 ft | 537 kts | 32° |
| 2026-04-20 13:09 | 22.61250 | -157.50451 | 37020 ft | 537 kts | 32° |
| 2026-04-20 13:09 | 22.67218 | -157.45578 | 37025 ft | 537 kts | 32° |
| 2026-04-20 13:10 | 22.73188 | -157.40697 | 37025 ft | 537 kts | 32° |
| 2026-04-20 13:10 | 22.79149 | -157.35819 | 37022 ft | 537 kts | 32° |
| 2026-04-20 13:11 | 22.85109 | -157.30935 | 37021 ft | 536 kts | 32° |
| 2026-04-20 13:11 | 22.91067 | -157.26048 | 37023 ft | 536 kts | 32° |
| 2026-04-20 13:12 | 22.96978 | -157.21194 | 37025 ft | 536 kts | 33° |
| 2026-04-20 13:12 | 23.02922 | -157.16308 | 37028 ft | 536 kts | 33° |
| 2026-04-20 13:13 | 23.08870 | -157.11412 | 37026 ft | 536 kts | 33° |
| 2026-04-20 13:13 | 23.14804 | -157.06523 | 37028 ft | 535 kts | 33° |
| 2026-04-20 13:14 | 23.20736 | -157.01630 | 37028 ft | 535 kts | 33° |
| 2026-04-20 13:14 | 23.26661 | -156.96736 | 37028 ft | 534 kts | 33° |
| 2026-04-20 13:15 | 23.32575 | -156.91847 | 37030 ft | 534 kts | 33° |
| 2026-04-20 13:15 | 23.38492 | -156.86949 | 37032 ft | 534 kts | 33° |
| 2026-04-20 13:16 | 23.44405 | -156.82048 | 37033 ft | 533 kts | 33° |
| 2026-04-20 13:16 | 23.50310 | -156.77149 | 37032 ft | 533 kts | 33° |
| 2026-04-20 13:17 | 23.55209 | -156.73081 | 37029 ft | 532 kts | 33° |
| 2026-04-20 13:17 | 23.61091 | -156.68190 | 37034 ft | 532 kts | 33° |
| 2026-04-20 13:18 | 23.67921 | -156.62504 | 37031 ft | 531 kts | 33° |
| 2026-04-20 13:18 | 23.72842 | -156.58403 | 37032 ft | 531 kts | 33° |
| 2026-04-20 13:19 | 23.78671 | -156.53539 | 37035 ft | 530 kts | 33° |
| 2026-04-20 13:19 | 23.84529 | -156.48645 | 37035 ft | 529 kts | 33° |
| 2026-04-20 13:20 | 23.90372 | -156.43758 | 37031 ft | 529 kts | 33° |
| 2026-04-20 13:20 | 23.96211 | -156.38868 | 37034 ft | 528 kts | 33° |
| 2026-04-20 13:21 | 24.01985 | -156.33895 | 37033 ft | 530 kts | 38° |
| 2026-04-20 13:21 | 24.07075 | -156.28026 | 37035 ft | 534 kts | 50° |
| 2026-04-20 13:22 | 24.11396 | -156.21397 | 37045 ft | 535 kts | 53° |
| 2026-04-20 13:22 | 24.15627 | -156.14691 | 37040 ft | 535 kts | 53° |
| 2026-04-20 13:23 | 24.19883 | -156.08017 | 37032 ft | 534 kts | 53° |
| 2026-04-20 13:23 | 24.24165 | -156.01363 | 37038 ft | 533 kts | 52° |
| 2026-04-20 13:24 | 24.28415 | -155.94766 | 37040 ft | 532 kts | 52° |
| 2026-04-20 13:24 | 24.32676 | -155.88135 | 37036 ft | 531 kts | 53° |
| 2026-04-20 13:25 | 24.36921 | -155.81516 | 37036 ft | 530 kts | 53° |
| 2026-04-20 13:25 | 24.41157 | -155.74899 | 37045 ft | 529 kts | 53° |
| 2026-04-20 13:26 | 24.45386 | -155.68286 | 37041 ft | 528 kts | 53° |
| 2026-04-20 13:26 | 24.49572 | -155.61731 | 37044 ft | 527 kts | 53° |
| 2026-04-20 13:27 | 24.53773 | -155.55145 | 37047 ft | 526 kts | 53° |
| 2026-04-20 13:27 | 24.57967 | -155.48560 | 37046 ft | 525 kts | 53° |
| 2026-04-20 13:28 | 24.62150 | -155.41983 | 37037 ft | 524 kts | 53° |
| 2026-04-20 13:28 | 24.66326 | -155.35408 | 37051 ft | 523 kts | 53° |
| 2026-04-20 13:29 | 24.70468 | -155.28885 | 37051 ft | 523 kts | 52° |
| 2026-04-20 13:29 | 24.75150 | -155.22818 | 37052 ft | 518 kts | 42° |
| 2026-04-20 13:30 | 24.80322 | -155.17293 | 37056 ft | 517 kts | 41° |
| 2026-04-20 13:30 | 24.85512 | -155.11784 | 37053 ft | 517 kts | 41° |
| 2026-04-20 13:31 | 24.90658 | -155.06254 | 37056 ft | 517 kts | 41° |
| 2026-04-20 13:31 | 24.95789 | -155.00694 | 37059 ft | 517 kts | 42° |
| 2026-04-20 13:32 | 25.00906 | -154.95133 | 37059 ft | 516 kts | 42° |
| 2026-04-20 13:32 | 25.06013 | -154.89579 | 37060 ft | 515 kts | 42° |
| 2026-04-20 13:33 | 25.11118 | -154.84024 | 37059 ft | 515 kts | 42° |
| 2026-04-20 13:33 | 25.16210 | -154.78476 | 37058 ft | 514 kts | 42° |
| 2026-04-20 13:34 | 25.21294 | -154.72932 | 37062 ft | 513 kts | 42° |
| 2026-04-20 13:34 | 25.26359 | -154.67400 | 37064 ft | 512 kts | 42° |
| 2026-04-20 13:35 | 25.31424 | -154.61862 | 37064 ft | 511 kts | 42° |
| 2026-04-20 13:35 | 25.36483 | -154.56323 | 37066 ft | 511 kts | 42° |
| 2026-04-20 13:36 | 25.41534 | -154.50787 | 37068 ft | 511 kts | 43° |
| 2026-04-20 13:36 | 25.46544 | -154.45288 | 37070 ft | 510 kts | 43° |
| 2026-04-20 13:37 | 25.51586 | -154.39746 | 37072 ft | 510 kts | 43° |
| 2026-04-20 13:37 | 25.56614 | -154.34215 | 37071 ft | 510 kts | 43° |
| 2026-04-20 13:38 | 25.61644 | -154.28673 | 37075 ft | 510 kts | 43° |
| 2026-04-20 13:38 | 25.66683 | -154.23115 | 37075 ft | 510 kts | 43° |
| 2026-04-20 13:39 | 25.71712 | -154.17560 | 37079 ft | 510 kts | 43° |
| 2026-04-20 13:39 | 25.76736 | -154.12005 | 37079 ft | 510 kts | 43° |
| 2026-04-20 13:40 | 25.81763 | -154.06438 | 37079 ft | 510 kts | 43° |
| 2026-04-20 13:40 | 25.86756 | -154.00903 | 37082 ft | 510 kts | 43° |
| 2026-04-20 13:41 | 25.91780 | -153.95326 | 37088 ft | 510 kts | 43° |
| 2026-04-20 13:41 | 25.96806 | -153.89739 | 37092 ft | 511 kts | 43° |
| 2026-04-20 13:42 | 26.01829 | -153.84149 | 37085 ft | 511 kts | 43° |
| 2026-04-20 13:42 | 26.09367 | -153.75746 | 37078 ft | 511 kts | 43° |
| 2026-04-20 13:43 | 26.14393 | -153.70134 | 37090 ft | 512 kts | 43° |
| 2026-04-20 13:43 | 26.19417 | -153.64517 | 37092 ft | 513 kts | 44° |
| 2026-04-20 13:44 | 26.24450 | -153.58883 | 37086 ft | 513 kts | 44° |
| 2026-04-20 13:44 | 26.29489 | -153.53236 | 37099 ft | 514 kts | 44° |
| 2026-04-20 13:45 | 26.34534 | -153.47574 | 37099 ft | 514 kts | 44° |
| 2026-04-20 13:45 | 26.39582 | -153.41900 | 37098 ft | 515 kts | 44° |
| 2026-04-20 13:46 | 26.44607 | -153.36245 | 37097 ft | 516 kts | 44° |
| 2026-04-20 13:46 | 26.49655 | -153.30558 | 37107 ft | 516 kts | 44° |
| 2026-04-20 13:47 | 26.54711 | -153.24853 | 37106 ft | 516 kts | 43° |
| 2026-04-20 13:47 | 26.59764 | -153.19144 | 37106 ft | 516 kts | 43° |
| 2026-04-20 13:48 | 26.64825 | -153.13418 | 37113 ft | 516 kts | 43° |
| 2026-04-20 13:48 | 26.69835 | -153.07743 | 37113 ft | 516 kts | 43° |
| 2026-04-20 13:49 | 26.74874 | -153.02027 | 37117 ft | 516 kts | 43° |
| 2026-04-20 13:49 | 26.79919 | -152.96297 | 37120 ft | 515 kts | 43° |
| 2026-04-20 13:50 | 26.84946 | -152.90580 | 37121 ft | 515 kts | 43° |
| 2026-04-20 13:50 | 26.89982 | -152.84843 | 37128 ft | 515 kts | 43° |
| 2026-04-20 13:51 | 26.95009 | -152.79110 | 37124 ft | 516 kts | 43° |
| 2026-04-20 13:51 | 27.00036 | -152.73370 | 37126 ft | 516 kts | 43° |
| 2026-04-20 13:52 | 27.05073 | -152.67609 | 37133 ft | 517 kts | 43° |
| 2026-04-20 13:52 | 27.10112 | -152.61840 | 37129 ft | 518 kts | 43° |
| 2026-04-20 13:53 | 27.15123 | -152.56094 | 37134 ft | 519 kts | 43° |
| 2026-04-20 13:53 | 27.20203 | -152.50260 | 37140 ft | 518 kts | 43° |
| 2026-04-20 13:54 | 27.25237 | -152.44472 | 37135 ft | 517 kts | 43° |
| 2026-04-20 13:54 | 27.30208 | -152.38747 | 37138 ft | 514 kts | 43° |
| 2026-04-20 13:55 | 27.35210 | -152.32979 | 37136 ft | 509 kts | 43° |
| 2026-04-20 13:55 | 27.40138 | -152.27288 | 37137 ft | 505 kts | 43° |
| 2026-04-20 13:56 | 27.44993 | -152.21675 | 37138 ft | 501 kts | 43° |
| 2026-04-20 13:56 | 27.49841 | -152.16063 | 37143 ft | 499 kts | 43° |
| 2026-04-20 13:57 | 27.54675 | -152.10460 | 37150 ft | 498 kts | 43° |
| 2026-04-20 13:57 | 27.59508 | -152.04851 | 37154 ft | 499 kts | 43° |
| 2026-04-20 13:58 | 27.64355 | -151.99218 | 37161 ft | 500 kts | 44° |
| 2026-04-20 13:58 | 27.68383 | -151.94530 | 37161 ft | 501 kts | 44° |
| 2026-04-20 13:59 | 27.73244 | -151.88866 | 37156 ft | 503 kts | 44° |
| 2026-04-20 13:59 | 27.78109 | -151.83189 | 37164 ft | 503 kts | 44° |
| 2026-04-20 14:00 | 27.82983 | -151.77493 | 37159 ft | 504 kts | 44° |
| 2026-04-20 14:00 | 27.87859 | -151.71788 | 37166 ft | 504 kts | 44° |
| 2026-04-20 14:01 | 27.92726 | -151.66085 | 37173 ft | 504 kts | 44° |
| 2026-04-20 14:01 | 27.97596 | -151.60371 | 37174 ft | 504 kts | 44° |
| 2026-04-20 14:02 | 28.02424 | -151.54698 | 37170 ft | 503 kts | 44° |
| 2026-04-20 14:02 | 28.07282 | -151.48982 | 37169 ft | 503 kts | 44° |
| 2026-04-20 14:03 | 28.12127 | -151.43273 | 37174 ft | 502 kts | 44° |
| 2026-04-20 14:03 | 28.16969 | -151.37561 | 37175 ft | 502 kts | 44° |
| 2026-04-20 14:04 | 28.21803 | -151.31850 | 37176 ft | 502 kts | 44° |
| 2026-04-20 14:04 | 28.26636 | -151.26132 | 37178 ft | 502 kts | 44° |
| 2026-04-20 14:05 | 28.31469 | -151.20406 | 37182 ft | 502 kts | 44° |
| 2026-04-20 14:05 | 28.36299 | -151.14675 | 37180 ft | 502 kts | 44° |
| 2026-04-20 14:06 | 28.41132 | -151.08933 | 37180 ft | 502 kts | 44° |
| 2026-04-20 14:06 | 28.45953 | -151.03197 | 37183 ft | 502 kts | 44° |
| 2026-04-20 14:07 | 28.50773 | -150.97454 | 37182 ft | 502 kts | 44° |
| 2026-04-20 14:07 | 28.55591 | -150.91705 | 37183 ft | 502 kts | 44° |
| 2026-04-20 14:08 | 28.60399 | -150.85960 | 37186 ft | 501 kts | 44° |
| 2026-04-20 14:08 | 28.65178 | -150.80241 | 37188 ft | 501 kts | 44° |
| 2026-04-20 14:09 | 28.69976 | -150.74492 | 37192 ft | 501 kts | 44° |
| 2026-04-20 14:09 | 28.74766 | -150.68745 | 37190 ft | 500 kts | 44° |
| 2026-04-20 14:10 | 28.79562 | -150.62981 | 37194 ft | 500 kts | 44° |
| 2026-04-20 14:10 | 28.84354 | -150.57215 | 37194 ft | 500 kts | 44° |
| 2026-04-20 14:11 | 28.89142 | -150.51445 | 37195 ft | 500 kts | 44° |
| 2026-04-20 14:11 | 28.93923 | -150.45674 | 37195 ft | 500 kts | 44° |
| 2026-04-20 14:12 | 28.98703 | -150.39897 | 37197 ft | 501 kts | 45° |
| 2026-04-20 14:12 | 29.03485 | -150.34110 | 37199 ft | 501 kts | 45° |
| 2026-04-20 14:13 | 29.08244 | -150.28341 | 37200 ft | 501 kts | 45° |
| 2026-04-20 14:13 | 29.13028 | -150.22535 | 37196 ft | 501 kts | 45° |
| 2026-04-20 14:14 | 29.17805 | -150.16727 | 37201 ft | 501 kts | 45° |
| 2026-04-20 14:14 | 29.22587 | -150.10906 | 37197 ft | 500 kts | 45° |
| 2026-04-20 14:15 | 29.27349 | -150.05100 | 37198 ft | 500 kts | 45° |
| 2026-04-20 14:15 | 29.32073 | -149.99331 | 37199 ft | 499 kts | 45° |
| 2026-04-20 14:16 | 29.36824 | -149.93523 | 37201 ft | 499 kts | 45° |
| 2026-04-20 14:16 | 29.41566 | -149.87716 | 37202 ft | 499 kts | 45° |
| 2026-04-20 14:17 | 29.46307 | -149.81902 | 37204 ft | 498 kts | 45° |
| 2026-04-20 14:17 | 29.51041 | -149.76088 | 37204 ft | 498 kts | 45° |
| 2026-04-20 14:18 | 29.55778 | -149.70261 | 37206 ft | 498 kts | 45° |
| 2026-04-20 14:18 | 29.60497 | -149.64449 | 37206 ft | 497 kts | 45° |
| 2026-04-20 14:19 | 29.65183 | -149.58669 | 37207 ft | 497 kts | 45° |
| 2026-04-20 14:19 | 29.69893 | -149.52850 | 37206 ft | 497 kts | 45° |
| 2026-04-20 14:20 | 29.74592 | -149.47036 | 37207 ft | 496 kts | 45° |
| 2026-04-20 14:20 | 29.79286 | -149.41221 | 37210 ft | 496 kts | 45° |
| 2026-04-20 14:21 | 29.83984 | -149.35391 | 37211 ft | 496 kts | 45° |
| 2026-04-20 14:21 | 29.88675 | -149.29561 | 37216 ft | 496 kts | 45° |
| 2026-04-20 14:22 | 29.93379 | -149.23706 | 37214 ft | 496 kts | 45° |
| 2026-04-20 14:22 | 29.98061 | -149.17869 | 37219 ft | 497 kts | 45° |
| 2026-04-20 14:23 | 30.02749 | -149.12017 | 37220 ft | 497 kts | 45° |
| 2026-04-20 14:23 | 30.07442 | -149.06152 | 37215 ft | 497 kts | 45° |
| 2026-04-20 14:24 | 30.12132 | -149.00293 | 37215 ft | 497 kts | 45° |
| 2026-04-20 14:24 | 30.16821 | -148.94427 | 37218 ft | 497 kts | 45° |
| 2026-04-20 14:25 | 30.21507 | -148.88554 | 37220 ft | 497 kts | 45° |
| 2026-04-20 14:25 | 30.26191 | -148.82673 | 37217 ft | 497 kts | 45° |
| 2026-04-20 14:26 | 30.30873 | -148.76785 | 37226 ft | 497 kts | 45° |
| 2026-04-20 14:26 | 30.35547 | -148.70898 | 37224 ft | 497 kts | 45° |
| 2026-04-20 14:27 | 30.40223 | -148.65001 | 37223 ft | 497 kts | 45° |
| 2026-04-20 14:27 | 30.44863 | -148.59139 | 37222 ft | 497 kts | 45° |
| 2026-04-20 14:28 | 30.49535 | -148.53229 | 37225 ft | 497 kts | 45° |
| 2026-04-20 14:28 | 30.54207 | -148.47309 | 37226 ft | 497 kts | 45° |
| 2026-04-20 14:29 | 30.58873 | -148.41387 | 37224 ft | 497 kts | 45° |
| 2026-04-20 14:29 | 30.63540 | -148.35455 | 37227 ft | 497 kts | 45° |
| 2026-04-20 14:30 | 30.68178 | -148.29552 | 37226 ft | 497 kts | 45° |
| 2026-04-20 14:30 | 30.72835 | -148.23616 | 37228 ft | 498 kts | 45° |
| 2026-04-20 14:31 | 30.77505 | -148.17652 | 37231 ft | 498 kts | 45° |
| 2026-04-20 14:31 | 30.82167 | -148.11690 | 37227 ft | 498 kts | 45° |
| 2026-04-20 14:32 | 30.86827 | -148.05721 | 37226 ft | 498 kts | 45° |
| 2026-04-20 14:32 | 30.91486 | -147.99744 | 37224 ft | 498 kts | 45° |
| 2026-04-20 14:33 | 30.96139 | -147.93766 | 37226 ft | 498 kts | 45° |
| 2026-04-20 14:33 | 31.00742 | -147.87843 | 37226 ft | 498 kts | 45° |
| 2026-04-20 14:34 | 31.05393 | -147.81848 | 37231 ft | 498 kts | 45° |
| 2026-04-20 14:34 | 31.10038 | -147.75852 | 37230 ft | 498 kts | 45° |
| 2026-04-20 14:35 | 31.14651 | -147.69888 | 37232 ft | 498 kts | 45° |
| 2026-04-20 14:35 | 31.19285 | -147.63886 | 37223 ft | 497 kts | 45° |
| 2026-04-20 14:36 | 31.23919 | -147.57876 | 37227 ft | 497 kts | 45° |
| 2026-04-20 14:36 | 31.28539 | -147.51875 | 37227 ft | 497 kts | 45° |
| 2026-04-20 14:37 | 31.33159 | -147.45863 | 37229 ft | 496 kts | 45° |
| 2026-04-20 14:37 | 31.37769 | -147.39855 | 37230 ft | 496 kts | 45° |
| 2026-04-20 14:38 | 31.42375 | -147.33843 | 37224 ft | 496 kts | 45° |
| 2026-04-20 14:38 | 31.46982 | -147.27821 | 37219 ft | 495 kts | 45° |
| 2026-04-20 14:39 | 31.51547 | -147.21842 | 37226 ft | 495 kts | 45° |
| 2026-04-20 14:39 | 31.56173 | -147.15776 | 37221 ft | 495 kts | 45° |
| 2026-04-20 14:40 | 31.60757 | -147.09754 | 37223 ft | 495 kts | 45° |
| 2026-04-20 14:40 | 31.65336 | -147.03729 | 37210 ft | 495 kts | 45° |
| 2026-04-20 14:41 | 31.69894 | -146.97723 | 37231 ft | 495 kts | 45° |
| 2026-04-20 14:41 | 31.74472 | -146.91679 | 37234 ft | 495 kts | 45° |
| 2026-04-20 14:42 | 31.79045 | -146.85633 | 37226 ft | 495 kts | 45° |
| 2026-04-20 14:42 | 31.83618 | -146.79578 | 37220 ft | 495 kts | 45° |
| 2026-04-20 14:43 | 31.87416 | -146.74541 | 37219 ft | 495 kts | 45° |
| 2026-04-20 14:43 | 31.91983 | -146.68475 | 37220 ft | 495 kts | 45° |
| 2026-04-20 14:44 | 31.96543 | -146.62409 | 37220 ft | 495 kts | 45° |
| 2026-04-20 14:44 | 32.01102 | -146.56335 | 37221 ft | 495 kts | 44° |
| 2026-04-20 14:45 | 32.05656 | -146.50256 | 37217 ft | 494 kts | 44° |
| 2026-04-20 14:45 | 32.10210 | -146.44168 | 37225 ft | 494 kts | 44° |
| 2026-04-20 14:46 | 32.14753 | -146.38085 | 37219 ft | 494 kts | 44° |
| 2026-04-20 14:46 | 32.19261 | -146.32038 | 37216 ft | 493 kts | 44° |
| 2026-04-20 14:47 | 32.23786 | -146.25959 | 37222 ft | 492 kts | 44° |
| 2026-04-20 14:48 | 32.30558 | -146.16844 | 37219 ft | 492 kts | 44° |
| 2026-04-20 14:48 | 32.35064 | -146.10765 | 37214 ft | 491 kts | 44° |
| 2026-04-20 14:49 | 32.39572 | -146.04674 | 37215 ft | 491 kts | 44° |
| 2026-04-20 14:49 | 32.44071 | -145.98585 | 37215 ft | 491 kts | 44° |
| 2026-04-20 14:50 | 32.48564 | -145.92496 | 37216 ft | 491 kts | 44° |
| 2026-04-20 14:50 | 32.53055 | -145.86398 | 37210 ft | 491 kts | 44° |
| 2026-04-20 14:51 | 32.57539 | -145.80298 | 37219 ft | 491 kts | 44° |
| 2026-04-20 14:51 | 32.62021 | -145.74192 | 37217 ft | 491 kts | 44° |
| 2026-04-20 14:52 | 32.66475 | -145.68115 | 37214 ft | 491 kts | 44° |
| 2026-04-20 14:52 | 32.70952 | -145.61994 | 37215 ft | 491 kts | 44° |
| 2026-04-20 14:53 | 32.75432 | -145.55861 | 37217 ft | 491 kts | 43° |
| 2026-04-20 14:53 | 32.79909 | -145.49721 | 37208 ft | 491 kts | 43° |
| 2026-04-20 14:54 | 32.84343 | -145.43629 | 37201 ft | 490 kts | 43° |
| 2026-04-20 14:54 | 32.88799 | -145.37498 | 37212 ft | 490 kts | 43° |
| 2026-04-20 14:55 | 32.93258 | -145.31352 | 37215 ft | 490 kts | 43° |
| 2026-04-20 14:55 | 32.97707 | -145.25209 | 37218 ft | 489 kts | 43° |
| 2026-04-20 14:56 | 33.02143 | -145.19074 | 37207 ft | 488 kts | 43° |
| 2026-04-20 14:56 | 33.06578 | -145.12929 | 37205 ft | 488 kts | 43° |
| 2026-04-20 14:57 | 33.10997 | -145.06797 | 37205 ft | 488 kts | 43° |
| 2026-04-20 14:57 | 33.15417 | -145.00653 | 37208 ft | 487 kts | 43° |
| 2026-04-20 14:58 | 33.19834 | -144.94503 | 37205 ft | 487 kts | 43° |
| 2026-04-20 14:58 | 33.24238 | -144.88361 | 37199 ft | 487 kts | 43° |
| 2026-04-20 14:59 | 33.28621 | -144.82238 | 37198 ft | 487 kts | 43° |
| 2026-04-20 14:59 | 33.33021 | -144.76080 | 37201 ft | 487 kts | 43° |
| 2026-04-20 15:00 | 33.37429 | -144.69901 | 37198 ft | 487 kts | 43° |
| 2026-04-20 15:00 | 33.41822 | -144.63733 | 37197 ft | 487 kts | 43° |
| 2026-04-20 15:01 | 33.46217 | -144.57550 | 37197 ft | 487 kts | 43° |
| 2026-04-20 15:01 | 33.50576 | -144.51409 | 37198 ft | 487 kts | 43° |
| 2026-04-20 15:02 | 33.54965 | -144.45214 | 37193 ft | 487 kts | 43° |
| 2026-04-20 15:02 | 33.59358 | -144.39004 | 37193 ft | 487 kts | 43° |
| 2026-04-20 15:03 | 33.63738 | -144.32799 | 37191 ft | 487 kts | 43° |
| 2026-04-20 15:03 | 33.68119 | -144.26583 | 37187 ft | 487 kts | 43° |
| 2026-04-20 15:04 | 33.72504 | -144.20351 | 37185 ft | 487 kts | 43° |
| 2026-04-20 15:04 | 33.76850 | -144.14164 | 37187 ft | 488 kts | 43° |
| 2026-04-20 15:05 | 33.81220 | -144.07932 | 37186 ft | 488 kts | 43° |
| 2026-04-20 15:05 | 33.85597 | -144.01680 | 37182 ft | 488 kts | 43° |
| 2026-04-20 15:06 | 33.89984 | -143.95402 | 37258 ft | 492 kts | 43° |
| 2026-04-20 15:06 | 33.92191 | -143.92241 | 37628 ft | 491 kts | 43° |
| 2026-04-20 15:06 | 33.94378 | -143.89102 | 38116 ft | 489 kts | 43° |
| 2026-04-20 15:06 | 33.96559 | -143.85967 | 38524 ft | 487 kts | 43° |
| 2026-04-20 15:07 | 33.98734 | -143.82841 | 38848 ft | 487 kts | 43° |
| 2026-04-20 15:07 | 34.00914 | -143.79707 | 39062 ft | 488 kts | 43° |
| 2026-04-20 15:07 | 34.03103 | -143.76559 | 39116 ft | 491 kts | 43° |
| 2026-04-20 15:08 | 34.07487 | -143.70243 | 39167 ft | 491 kts | 43° |
| 2026-04-20 15:08 | 34.11850 | -143.63938 | 39169 ft | 488 kts | 43° |
| 2026-04-20 15:09 | 34.16184 | -143.57668 | 39172 ft | 486 kts | 43° |
| 2026-04-20 15:09 | 34.20479 | -143.51445 | 39172 ft | 485 kts | 43° |
| 2026-04-20 15:10 | 34.24794 | -143.45184 | 39168 ft | 484 kts | 43° |
| 2026-04-20 15:10 | 34.29106 | -143.38915 | 39168 ft | 485 kts | 43° |
| 2026-04-20 15:11 | 34.33419 | -143.32634 | 39167 ft | 485 kts | 43° |
| 2026-04-20 15:11 | 34.37712 | -143.26370 | 39161 ft | 486 kts | 43° |
| 2026-04-20 15:12 | 34.42026 | -143.20064 | 39162 ft | 486 kts | 44° |
| 2026-04-20 15:12 | 34.46339 | -143.13748 | 39160 ft | 486 kts | 44° |
| 2026-04-20 15:13 | 34.50657 | -143.07414 | 39157 ft | 486 kts | 44° |
| 2026-04-20 15:13 | 34.54964 | -143.01084 | 39158 ft | 486 kts | 44° |
| 2026-04-20 15:14 | 34.59244 | -142.94782 | 39154 ft | 486 kts | 44° |
| 2026-04-20 15:14 | 34.63534 | -142.88455 | 39152 ft | 485 kts | 44° |
| 2026-04-20 15:15 | 34.67824 | -142.82115 | 39153 ft | 484 kts | 44° |
| 2026-04-20 15:15 | 34.71935 | -142.76030 | 39143 ft | 483 kts | 44° |
| 2026-04-20 15:16 | 34.76201 | -142.69704 | 39146 ft | 483 kts | 44° |
| 2026-04-20 15:16 | 34.80425 | -142.63429 | 39141 ft | 482 kts | 44° |
| 2026-04-20 15:17 | 34.84673 | -142.57109 | 39150 ft | 481 kts | 44° |
| 2026-04-20 15:17 | 34.88914 | -142.50785 | 39149 ft | 481 kts | 44° |
| 2026-04-20 15:18 | 34.93125 | -142.44496 | 39142 ft | 480 kts | 44° |
| 2026-04-20 15:18 | 34.97345 | -142.38181 | 39139 ft | 480 kts | 44° |
| 2026-04-20 15:19 | 35.01557 | -142.31868 | 39137 ft | 480 kts | 44° |
| 2026-04-20 15:19 | 35.05764 | -142.25547 | 39135 ft | 479 kts | 44° |
| 2026-04-20 15:20 | 35.09960 | -142.19229 | 39135 ft | 479 kts | 43° |
| 2026-04-20 15:20 | 35.14156 | -142.12898 | 39134 ft | 479 kts | 43° |
| 2026-04-20 15:21 | 35.18346 | -142.06566 | 39133 ft | 479 kts | 43° |
| 2026-04-20 15:21 | 35.22531 | -142.00230 | 39128 ft | 478 kts | 43° |
| 2026-04-20 15:22 | 35.26712 | -141.93888 | 39131 ft | 478 kts | 43° |
| 2026-04-20 15:22 | 35.30856 | -141.87591 | 39117 ft | 478 kts | 43° |
| 2026-04-20 15:23 | 35.35024 | -141.81246 | 39116 ft | 478 kts | 43° |
| 2026-04-20 15:23 | 35.39185 | -141.74899 | 39115 ft | 477 kts | 43° |
| 2026-04-20 15:24 | 35.43338 | -141.68554 | 39112 ft | 477 kts | 43° |
| 2026-04-20 15:24 | 35.47481 | -141.62212 | 39111 ft | 476 kts | 43° |
| 2026-04-20 15:25 | 35.51620 | -141.55864 | 39111 ft | 475 kts | 43° |
| 2026-04-20 15:25 | 35.55747 | -141.49523 | 39109 ft | 475 kts | 43° |
| 2026-04-20 15:26 | 35.59845 | -141.43216 | 39105 ft | 474 kts | 43° |
| 2026-04-20 15:26 | 35.63957 | -141.36875 | 39101 ft | 473 kts | 43° |
| 2026-04-20 15:27 | 35.68057 | -141.30541 | 39094 ft | 473 kts | 43° |
| 2026-04-20 15:27 | 35.72147 | -141.24211 | 39093 ft | 472 kts | 43° |
| 2026-04-20 15:28 | 35.76224 | -141.17890 | 39089 ft | 471 kts | 43° |
| 2026-04-20 15:28 | 35.80292 | -141.11570 | 39087 ft | 470 kts | 43° |
| 2026-04-20 15:29 | 35.84349 | -141.05258 | 39090 ft | 470 kts | 43° |
| 2026-04-20 15:29 | 35.87720 | -141.00003 | 39086 ft | 469 kts | 43° |
| 2026-04-20 15:30 | 35.91767 | -140.93684 | 39086 ft | 469 kts | 43° |
| 2026-04-20 15:30 | 35.95807 | -140.87365 | 39084 ft | 469 kts | 43° |
| 2026-04-20 15:31 | 36.00491 | -140.80023 | 39069 ft | 468 kts | 43° |
| 2026-04-20 15:31 | 36.03862 | -140.74730 | 39075 ft | 468 kts | 43° |
| 2026-04-20 15:32 | 36.07856 | -140.68446 | 39073 ft | 467 kts | 43° |
| 2026-04-20 15:32 | 36.11874 | -140.62115 | 39076 ft | 467 kts | 43° |
| 2026-04-20 15:33 | 36.15883 | -140.55787 | 39071 ft | 467 kts | 43° |
| 2026-04-20 15:33 | 36.19884 | -140.49457 | 39058 ft | 467 kts | 43° |
| 2026-04-20 15:34 | 36.23893 | -140.43105 | 39065 ft | 467 kts | 43° |
| 2026-04-20 15:34 | 36.27894 | -140.36753 | 39061 ft | 467 kts | 43° |
| 2026-04-20 15:35 | 36.31862 | -140.30441 | 39063 ft | 467 kts | 43° |
| 2026-04-20 15:35 | 36.35857 | -140.24075 | 39053 ft | 467 kts | 43° |
| 2026-04-20 15:36 | 36.39847 | -140.17704 | 39044 ft | 467 kts | 43° |
| 2026-04-20 15:36 | 36.43838 | -140.11321 | 39046 ft | 468 kts | 43° |
| 2026-04-20 15:37 | 36.47824 | -140.04934 | 39045 ft | 468 kts | 43° |
| 2026-04-20 15:37 | 36.51813 | -139.98529 | 39040 ft | 469 kts | 43° |
| 2026-04-20 15:38 | 36.55778 | -139.92152 | 39039 ft | 469 kts | 43° |
| 2026-04-20 15:38 | 36.59692 | -139.85845 | 39033 ft | 470 kts | 43° |
| 2026-04-20 15:39 | 36.63762 | -139.79272 | 39029 ft | 471 kts | 43° |
| 2026-04-20 15:39 | 36.67766 | -139.72795 | 39030 ft | 471 kts | 43° |
| 2026-04-20 15:40 | 36.71769 | -139.66307 | 39025 ft | 472 kts | 43° |
| 2026-04-20 15:40 | 36.75781 | -139.59791 | 39018 ft | 473 kts | 43° |
| 2026-04-20 15:41 | 36.79784 | -139.53277 | 39014 ft | 473 kts | 44° |
| 2026-04-20 15:41 | 36.83759 | -139.46795 | 39012 ft | 473 kts | 44° |
| 2026-04-20 15:42 | 36.87763 | -139.40253 | 39011 ft | 473 kts | 44° |
| 2026-04-20 15:42 | 36.91755 | -139.33719 | 39011 ft | 472 kts | 44° |
| 2026-04-20 15:43 | 36.95733 | -139.27195 | 38998 ft | 471 kts | 44° |
| 2026-04-20 15:43 | 36.99700 | -139.20676 | 38994 ft | 470 kts | 44° |
| 2026-04-20 15:44 | 37.03649 | -139.14175 | 38995 ft | 468 kts | 44° |
| 2026-04-20 15:44 | 37.07580 | -139.07690 | 38997 ft | 467 kts | 44° |
| 2026-04-20 15:45 | 37.11477 | -139.01252 | 38987 ft | 466 kts | 43° |
| 2026-04-20 15:45 | 37.15393 | -138.94768 | 38981 ft | 466 kts | 43° |
| 2026-04-20 15:46 | 37.19299 | -138.88290 | 38988 ft | 466 kts | 43° |
| 2026-04-20 15:46 | 37.23204 | -138.81799 | 38987 ft | 466 kts | 43° |
| 2026-04-20 15:47 | 37.27108 | -138.75299 | 38967 ft | 466 kts | 43° |
| 2026-04-20 15:47 | 37.31006 | -138.68793 | 38971 ft | 466 kts | 43° |
| 2026-04-20 15:48 | 37.34902 | -138.62278 | 38971 ft | 466 kts | 43° |
| 2026-04-20 15:48 | 37.38775 | -138.55793 | 38966 ft | 467 kts | 43° |
| 2026-04-20 15:49 | 37.42676 | -138.49246 | 38966 ft | 467 kts | 43° |
| 2026-04-20 15:49 | 37.46571 | -138.42694 | 38961 ft | 467 kts | 43° |
| 2026-04-20 15:50 | 37.50464 | -138.36133 | 38961 ft | 468 kts | 44° |
| 2026-04-20 15:50 | 37.54356 | -138.29561 | 38959 ft | 468 kts | 44° |
| 2026-04-20 15:51 | 37.58243 | -138.22986 | 38952 ft | 468 kts | 44° |
| 2026-04-20 15:51 | 37.62103 | -138.16441 | 38944 ft | 467 kts | 44° |
| 2026-04-20 15:52 | 37.65983 | -138.09851 | 38942 ft | 467 kts | 44° |
| 2026-04-20 15:52 | 37.69860 | -138.03254 | 38943 ft | 467 kts | 45° |
| 2026-04-20 15:53 | 37.75669 | -137.93342 | 38936 ft | 468 kts | 45° |
| 2026-04-20 15:53 | 37.79534 | -137.86732 | 38933 ft | 468 kts | 45° |
| 2026-04-20 15:54 | 37.83401 | -137.80106 | 38930 ft | 468 kts | 45° |
| 2026-04-20 15:54 | 37.87268 | -137.73465 | 38925 ft | 469 kts | 45° |
| 2026-04-20 15:55 | 37.91137 | -137.66807 | 38929 ft | 469 kts | 46° |
| 2026-04-20 15:55 | 37.95006 | -137.60137 | 38919 ft | 470 kts | 46° |
| 2026-04-20 15:56 | 37.98858 | -137.53483 | 38919 ft | 471 kts | 46° |
| 2026-04-20 15:56 | 38.02737 | -137.46767 | 38913 ft | 472 kts | 46° |
| 2026-04-20 15:57 | 38.06617 | -137.40036 | 38909 ft | 473 kts | 46° |
| 2026-04-20 15:57 | 38.10506 | -137.33275 | 38905 ft | 474 kts | 47° |
| 2026-04-20 15:58 | 38.14399 | -137.26494 | 38910 ft | 475 kts | 47° |
| 2026-04-20 15:58 | 38.18296 | -137.19692 | 38896 ft | 476 kts | 47° |
| 2026-04-20 15:59 | 38.22197 | -137.12867 | 38899 ft | 477 kts | 47° |
| 2026-04-20 15:59 | 38.26093 | -137.06039 | 38898 ft | 477 kts | 48° |
| 2026-04-20 16:00 | 38.29993 | -136.99187 | 38893 ft | 478 kts | 48° |
| 2026-04-20 16:00 | 38.33888 | -136.92329 | 38886 ft | 476 kts | 48° |
| 2026-04-20 16:01 | 38.37762 | -136.85495 | 38891 ft | 474 kts | 48° |
| 2026-04-20 16:01 | 38.41621 | -136.78673 | 38887 ft | 473 kts | 49° |
| 2026-04-20 16:02 | 38.45447 | -136.71898 | 38878 ft | 473 kts | 49° |
| 2026-04-20 16:02 | 38.49290 | -136.65077 | 38881 ft | 474 kts | 49° |
| 2026-04-20 16:03 | 38.53141 | -136.58228 | 38878 ft | 475 kts | 49° |
| 2026-04-20 16:03 | 38.56994 | -136.51361 | 38875 ft | 476 kts | 49° |
| 2026-04-20 16:04 | 38.60854 | -136.44466 | 38878 ft | 477 kts | 49° |
| 2026-04-20 16:04 | 38.64719 | -136.37547 | 38874 ft | 478 kts | 49° |
| 2026-04-20 16:05 | 38.68591 | -136.30601 | 38877 ft | 479 kts | 50° |
| 2026-04-20 16:05 | 38.72442 | -136.23678 | 38876 ft | 480 kts | 50° |
| 2026-04-20 16:06 | 38.76314 | -136.16702 | 38870 ft | 481 kts | 50° |
| 2026-04-20 16:06 | 38.80195 | -136.09695 | 38865 ft | 482 kts | 50° |
| 2026-04-20 16:07 | 38.84067 | -136.02689 | 38866 ft | 482 kts | 50° |
| 2026-04-20 16:07 | 38.87942 | -135.95662 | 38864 ft | 482 kts | 51° |
| 2026-04-20 16:08 | 38.91813 | -135.88626 | 38863 ft | 482 kts | 51° |
| 2026-04-20 16:08 | 38.95681 | -135.81581 | 38862 ft | 482 kts | 51° |
| 2026-04-20 16:09 | 38.99549 | -135.74520 | 38858 ft | 482 kts | 51° |
| 2026-04-20 16:09 | 39.03408 | -135.67460 | 38864 ft | 482 kts | 51° |
| 2026-04-20 16:10 | 39.07269 | -135.60383 | 38867 ft | 483 kts | 51° |
| 2026-04-20 16:10 | 39.11102 | -135.53340 | 38861 ft | 483 kts | 51° |
| 2026-04-20 16:11 | 39.14955 | -135.46245 | 38868 ft | 483 kts | 51° |
| 2026-04-20 16:11 | 39.18806 | -135.39139 | 38859 ft | 484 kts | 52° |
| 2026-04-20 16:12 | 39.22667 | -135.31997 | 38858 ft | 485 kts | 52° |
| 2026-04-20 16:12 | 39.26524 | -135.24847 | 38861 ft | 485 kts | 52° |
| 2026-04-20 16:13 | 39.30379 | -135.17684 | 38858 ft | 486 kts | 52° |
| 2026-04-20 16:13 | 39.34236 | -135.10499 | 38856 ft | 487 kts | 52° |
| 2026-04-20 16:14 | 39.37441 | -135.04521 | 38865 ft | 487 kts | 52° |
| 2026-04-20 16:14 | 39.42383 | -134.96662 | 38866 ft | 483 kts | 42° |
| 2026-04-20 16:15 | 39.47494 | -134.91082 | 38867 ft | 480 kts | 34° |
| 2026-04-20 16:15 | 39.51982 | -134.86764 | 38862 ft | 480 kts | 34° |
| 2026-04-20 16:16 | 39.57361 | -134.81609 | 38865 ft | 481 kts | 34° |
| 2026-04-20 16:16 | 39.62690 | -134.76440 | 38863 ft | 481 kts | 34° |
| 2026-04-20 16:17 | 39.68045 | -134.71197 | 38868 ft | 481 kts | 34° |
| 2026-04-20 16:17 | 39.73386 | -134.65948 | 38865 ft | 482 kts | 35° |
| 2026-04-20 16:18 | 39.78734 | -134.60683 | 38867 ft | 482 kts | 35° |
| 2026-04-20 16:18 | 39.84080 | -134.55411 | 38867 ft | 482 kts | 35° |
| 2026-04-20 16:19 | 39.89423 | -134.50132 | 38866 ft | 482 kts | 35° |
| 2026-04-20 16:19 | 39.94758 | -134.44851 | 38863 ft | 482 kts | 35° |
| 2026-04-20 16:20 | 40.00104 | -134.39548 | 38873 ft | 482 kts | 35° |
| 2026-04-20 16:20 | 40.05406 | -134.34279 | 38875 ft | 482 kts | 35° |
| 2026-04-20 16:21 | 40.10738 | -134.28968 | 38865 ft | 482 kts | 36° |
| 2026-04-20 16:21 | 40.16072 | -134.23645 | 38868 ft | 482 kts | 36° |
| 2026-04-20 16:22 | 40.21405 | -134.18313 | 38870 ft | 483 kts | 36° |
| 2026-04-20 16:22 | 40.26740 | -134.12968 | 38870 ft | 483 kts | 36° |
| 2026-04-20 16:23 | 40.32087 | -134.07599 | 38869 ft | 483 kts | 36° |
| 2026-04-20 16:23 | 40.37421 | -134.02232 | 38876 ft | 484 kts | 36° |
| 2026-04-20 16:24 | 40.42726 | -133.96884 | 38873 ft | 484 kts | 36° |
| 2026-04-20 16:24 | 40.48055 | -133.91500 | 38874 ft | 484 kts | 36° |
| 2026-04-20 16:25 | 40.53388 | -133.86102 | 38876 ft | 484 kts | 36° |
| 2026-04-20 16:25 | 40.58727 | -133.80686 | 38876 ft | 484 kts | 36° |
| 2026-04-20 16:26 | 40.64066 | -133.75259 | 38876 ft | 485 kts | 36° |
| 2026-04-20 16:26 | 40.69407 | -133.69818 | 38874 ft | 485 kts | 36° |
| 2026-04-20 16:27 | 40.74741 | -133.64373 | 38879 ft | 485 kts | 36° |
| 2026-04-20 16:27 | 40.80077 | -133.58915 | 38886 ft | 486 kts | 36° |
| 2026-04-20 16:28 | 40.85425 | -133.53433 | 38879 ft | 486 kts | 36° |
| 2026-04-20 16:28 | 40.90774 | -133.47940 | 38880 ft | 487 kts | 36° |
| 2026-04-20 16:29 | 40.96095 | -133.42463 | 38877 ft | 487 kts | 37° |
| 2026-04-20 16:29 | 41.01444 | -133.36946 | 38877 ft | 488 kts | 37° |
| 2026-04-20 16:30 | 41.06803 | -133.31405 | 38878 ft | 489 kts | 37° |
| 2026-04-20 16:30 | 41.12171 | -133.25844 | 38876 ft | 489 kts | 37° |
| 2026-04-20 16:31 | 41.17537 | -133.20275 | 38877 ft | 490 kts | 37° |
| 2026-04-20 16:31 | 41.22900 | -133.14695 | 38877 ft | 490 kts | 37° |
| 2026-04-20 16:32 | 41.28275 | -133.09091 | 38878 ft | 491 kts | 37° |
| 2026-04-20 16:32 | 41.33623 | -133.03504 | 38879 ft | 491 kts | 37° |
| 2026-04-20 16:33 | 41.38995 | -132.97879 | 38880 ft | 491 kts | 37° |
| 2026-04-20 16:33 | 41.44371 | -132.92239 | 38876 ft | 492 kts | 37° |
| 2026-04-20 16:34 | 41.49752 | -132.86580 | 38883 ft | 492 kts | 38° |
| 2026-04-20 16:34 | 41.55125 | -132.80917 | 38881 ft | 492 kts | 38° |
| 2026-04-20 16:35 | 41.60495 | -132.75245 | 38881 ft | 492 kts | 38° |
| 2026-04-20 16:35 | 41.65866 | -132.69561 | 38882 ft | 492 kts | 38° |
| 2026-04-20 16:36 | 41.71232 | -132.63868 | 38883 ft | 492 kts | 38° |
| 2026-04-20 16:36 | 41.76574 | -132.58188 | 38882 ft | 493 kts | 38° |
| 2026-04-20 16:37 | 41.81984 | -132.52424 | 38890 ft | 494 kts | 39° |
| 2026-04-20 16:37 | 41.87330 | -132.46716 | 38883 ft | 495 kts | 39° |
| 2026-04-20 16:38 | 41.92728 | -132.40938 | 38883 ft | 496 kts | 39° |
| 2026-04-20 16:38 | 41.98121 | -132.35154 | 38886 ft | 496 kts | 39° |
| 2026-04-20 16:39 | 42.03516 | -132.29354 | 38887 ft | 497 kts | 39° |
| 2026-04-20 16:39 | 42.08911 | -132.23541 | 38890 ft | 497 kts | 39° |
| 2026-04-20 16:40 | 42.14302 | -132.17720 | 38893 ft | 497 kts | 39° |
| 2026-04-20 16:40 | 42.24771 | -132.06377 | 38893 ft | 497 kts | 39° |
| 2026-04-20 16:41 | 42.35542 | -131.94657 | 38833 ft | 496 kts | 40° |
| 2026-04-20 16:41 | 42.46064 | -131.83156 | 38861 ft | 477 kts | 40° |
| 2026-04-20 16:42 | 42.56220 | -131.72003 | 38885 ft | 470 kts | 40° |
| 2026-04-20 16:42 | 42.66441 | -131.60730 | 38905 ft | 477 kts | 40° |
| 2026-04-20 16:43 | 42.76842 | -131.49210 | 38898 ft | 485 kts | 40° |
| 2026-04-20 16:43 | 42.87342 | -131.37530 | 38887 ft | 486 kts | 41° |
| 2026-04-20 16:44 | 42.97737 | -131.25913 | 38881 ft | 478 kts | 41° |
| 2026-04-20 16:44 | 43.07957 | -131.14439 | 38880 ft | 472 kts | 41° |
| 2026-04-20 16:45 | 43.18116 | -131.02982 | 38893 ft | 475 kts | 41° |
| 2026-04-20 16:45 | 43.28418 | -130.91310 | 38895 ft | 484 kts | 41° |
| 2026-04-20 16:46 | 43.38798 | -130.79500 | 38890 ft | 490 kts | 41° |
| 2026-04-20 16:46 | 43.49180 | -130.67634 | 38872 ft | 484 kts | 41° |
| 2026-04-20 16:47 | 43.59434 | -130.55859 | 38878 ft | 476 kts | 42° |
| 2026-04-20 16:47 | 43.69558 | -130.44177 | 38879 ft | 475 kts | 42° |
| 2026-04-20 16:48 | 43.79778 | -130.32330 | 38886 ft | 484 kts | 42° |
| 2026-04-20 16:48 | 43.90170 | -130.20230 | 38878 ft | 490 kts | 42° |
| 2026-04-20 16:49 | 44.00620 | -130.08004 | 38854 ft | 489 kts | 43° |
| 2026-04-20 16:49 | 44.11362 | -129.96659 | 38848 ft | 485 kts | 31° |
| 2026-04-20 16:50 | 44.23683 | -129.89087 | 38847 ft | 482 kts | 25° |
| 2026-04-20 16:50 | 44.36028 | -129.81752 | 38882 ft | 489 kts | 26° |
| 2026-04-20 16:51 | 44.48625 | -129.74122 | 38868 ft | 498 kts | 26° |
| 2026-04-20 16:51 | 44.61381 | -129.66368 | 38865 ft | 499 kts | 26° |
| 2026-04-20 16:52 | 44.73995 | -129.58667 | 38858 ft | 489 kts | 26° |
| 2026-04-20 16:52 | 44.86385 | -129.51062 | 38877 ft | 483 kts | 26° |
| 2026-04-20 16:53 | 44.98745 | -129.43436 | 38892 ft | 487 kts | 27° |
| 2026-04-20 16:53 | 45.10561 | -129.36115 | 38899 ft | 496 kts | 27° |
| 2026-04-20 16:54 | 45.23385 | -129.28134 | 38900 ft | 501 kts | 27° |
| 2026-04-20 16:54 | 45.35683 | -129.20445 | 38887 ft | 498 kts | 27° |
| 2026-04-20 16:55 | 45.46794 | -129.13467 | 38891 ft | 490 kts | 27° |
| 2026-04-20 16:55 | 45.59208 | -129.05629 | 38911 ft | 486 kts | 27° |
| 2026-04-20 16:56 | 45.69518 | -128.99089 | 38925 ft | 491 kts | 27° |
| 2026-04-20 16:56 | 45.84185 | -128.89744 | 38926 ft | 500 kts | 27° |
| 2026-04-20 16:57 | 45.96916 | -128.81592 | 38915 ft | 500 kts | 27° |
| 2026-04-20 16:57 | 46.08949 | -128.73849 | 38908 ft | 489 kts | 27° |
| 2026-04-20 16:58 | 46.19280 | -128.67169 | 38897 ft | 485 kts | 27° |
| 2026-04-20 16:58 | 46.31687 | -128.59101 | 38944 ft | 502 kts | 27° |
| 2026-04-20 16:59 | 46.44734 | -128.50583 | 38918 ft | 516 kts | 27° |
| 2026-04-20 16:59 | 46.57727 | -128.42063 | 38904 ft | 508 kts | 27° |
| 2026-04-20 17:00 | 46.76670 | -128.29549 | 38924 ft | 496 kts | 27° |
| 2026-04-20 17:01 | 46.89313 | -128.21138 | 38935 ft | 503 kts | 27° |
| 2026-04-20 17:01 | 47.02139 | -128.12565 | 38931 ft | 510 kts | 27° |
| 2026-04-20 17:02 | 47.15064 | -128.03882 | 38918 ft | 508 kts | 27° |
| 2026-04-20 17:02 | 47.27766 | -127.95303 | 38905 ft | 497 kts | 27° |
| 2026-04-20 17:03 | 47.40287 | -127.86797 | 38915 ft | 492 kts | 27° |
| 2026-04-20 17:03 | 47.52722 | -127.78305 | 38935 ft | 499 kts | 26° |
| 2026-04-20 17:04 | 47.65234 | -127.69144 | 38914 ft | 502 kts | 37° |
| 2026-04-20 17:04 | 47.70511 | -127.62416 | 38913 ft | 499 kts | 51° |
| 2026-04-20 17:04 | 47.74919 | -127.54497 | 38936 ft | 495 kts | 54° |
| 2026-04-20 17:05 | 47.83468 | -127.38647 | 38900 ft | 486 kts | 53° |
| 2026-04-20 17:05 | 47.91953 | -127.23134 | 38910 ft | 480 kts | 53° |
| 2026-04-20 17:06 | 48.00325 | -127.07748 | 38920 ft | 483 kts | 53° |
| 2026-04-20 17:06 | 48.08852 | -126.91980 | 38923 ft | 492 kts | 53° |
| 2026-04-20 17:07 | 48.13500 | -126.83348 | 38915 ft | 494 kts | 53° |
| 2026-04-20 17:07 | 48.17813 | -126.75314 | 38904 ft | 495 kts | 53° |
| 2026-04-20 17:08 | 48.22115 | -126.67277 | 38898 ft | 492 kts | 53° |
| 2026-04-20 17:08 | 48.26385 | -126.59276 | 38894 ft | 490 kts | 53° |
| 2026-04-20 17:09 | 48.30627 | -126.51300 | 38891 ft | 487 kts | 53° |
| 2026-04-20 17:09 | 48.34817 | -126.43400 | 38887 ft | 485 kts | 53° |
| 2026-04-20 17:10 | 48.39008 | -126.35474 | 38892 ft | 483 kts | 53° |
| 2026-04-20 17:10 | 48.43188 | -126.27549 | 38897 ft | 483 kts | 53° |
| 2026-04-20 17:11 | 48.47141 | -126.19302 | 38897 ft | 482 kts | 58° |
| 2026-04-20 17:11 | 48.50758 | -126.10802 | 38893 ft | 481 kts | 59° |
| 2026-04-20 17:11 | 48.52527 | -126.06613 | 38760 ft | 478 kts | 59° |
| 2026-04-20 17:12 | 48.54319 | -126.02402 | 38300 ft | 476 kts | 59° |
| 2026-04-20 17:12 | 48.56109 | -125.98232 | 37823 ft | 470 kts | 59° |
| 2026-04-20 17:12 | 48.57885 | -125.94118 | 37373 ft | 464 kts | 59° |
| 2026-04-20 17:12 | 48.59640 | -125.90060 | 36936 ft | 459 kts | 59° |
| 2026-04-20 17:13 | 48.61379 | -125.86041 | 36496 ft | 454 kts | 59° |
| 2026-04-20 17:13 | 48.63100 | -125.82058 | 36061 ft | 450 kts | 59° |
| 2026-04-20 17:13 | 48.64801 | -125.78112 | 35635 ft | 446 kts | 59° |
| 2026-04-20 17:13 | 48.66488 | -125.74193 | 35188 ft | 442 kts | 60° |
| 2026-04-20 17:14 | 48.68158 | -125.70305 | 34744 ft | 439 kts | 60° |
| 2026-04-20 17:14 | 48.69817 | -125.66437 | 34312 ft | 436 kts | 60° |
| 2026-04-20 17:14 | 48.71460 | -125.62598 | 33856 ft | 434 kts | 60° |
| 2026-04-20 17:14 | 48.73093 | -125.58779 | 33346 ft | 431 kts | 60° |
| 2026-04-20 17:15 | 48.74719 | -125.54970 | 32878 ft | 428 kts | 60° |
| 2026-04-20 17:15 | 48.76327 | -125.51197 | 32437 ft | 425 kts | 60° |
| 2026-04-20 17:15 | 48.77927 | -125.47440 | 31968 ft | 422 kts | 60° |
| 2026-04-20 17:15 | 48.79511 | -125.43713 | 31527 ft | 419 kts | 60° |
| 2026-04-20 17:16 | 48.81066 | -125.40052 | 31095 ft | 416 kts | 60° |
| 2026-04-20 17:16 | 48.83468 | -125.34385 | 30418 ft | 412 kts | 60° |
| 2026-04-20 17:16 | 48.86552 | -125.27091 | 29475 ft | 408 kts | 60° |
| 2026-04-20 17:16 | 48.89592 | -125.19883 | 28497 ft | 403 kts | 60° |
| 2026-04-20 17:17 | 48.92589 | -125.12756 | 27607 ft | 397 kts | 60° |
| 2026-04-20 17:17 | 48.95540 | -125.05719 | 26763 ft | 391 kts | 60° |
| 2026-04-20 17:17 | 48.98449 | -124.98773 | 25945 ft | 386 kts | 60° |
| 2026-04-20 17:17 | 49.01249 | -124.92054 | 25184 ft | 382 kts | 60° |
| 2026-04-20 17:18 | 49.04087 | -124.85235 | 24379 ft | 379 kts | 60° |
| 2026-04-20 17:18 | 49.06424 | -124.78276 | 23573 ft | 366 kts | 84° |
| 2026-04-20 17:18 | 49.06616 | -124.70672 | 22720 ft | 357 kts | 93° |
| 2026-04-20 17:18 | 49.06668 | -124.63151 | 21846 ft | 353 kts | 92° |
| 2026-04-20 17:19 | 49.06834 | -124.48645 | 20238 ft | 344 kts | 92° |
| 2026-04-20 17:19 | 49.07006 | -124.34378 | 18740 ft | 332 kts | 92° |
| 2026-04-20 17:19 | 49.07155 | -124.20386 | 17165 ft | 320 kts | 92° |
| 2026-04-20 17:19 | 49.07288 | -124.07084 | 15734 ft | 309 kts | 92° |
| 2026-04-20 17:20 | 49.07404 | -123.94225 | 14384 ft | 298 kts | 92° |
| 2026-04-20 17:20 | 49.07536 | -123.81883 | 13021 ft | 289 kts | 92° |
| 2026-04-20 17:20 | 49.07651 | -123.69840 | 11612 ft | 281 kts | 92° |
| 2026-04-20 17:20 | 49.07748 | -123.58131 | 10408 ft | 287 kts | 92° |
| 2026-04-20 17:21 | 49.07838 | -123.46353 | 9322 ft | 272 kts | 92° |
| 2026-04-20 17:21 | 49.07865 | -123.35324 | 8495 ft | 246 kts | 93° |
| 2026-04-20 17:21 | 49.07798 | -123.24817 | 7542 ft | 250 kts | 93° |
| 2026-04-20 17:21 | 49.07732 | -123.14489 | 6338 ft | 239 kts | 92° |
| 2026-04-20 17:22 | 49.07659 | -123.04537 | 5616 ft | 232 kts | 93° |
| 2026-04-20 17:22 | 49.07578 | -122.94751 | 5158 ft | 228 kts | 92° |
| 2026-04-20 17:22 | 49.07496 | -122.85397 | 4956 ft | 223 kts | 91° |
| 2026-04-20 17:22 | 49.12025 | -122.80077 | 4779 ft | 245 kts | 356° |
| 2026-04-20 17:23 | 49.15353 | -122.87730 | 3599 ft | 218 kts | 279° |
| 2026-04-20 17:23 | 49.15707 | -122.91277 | 3173 ft | 206 kts | 278° |
| 2026-04-20 17:23 | 49.15896 | -122.93388 | 2930 ft | 196 kts | 280° |
| 2026-04-20 17:23 | 49.16264 | -122.96755 | 2523 ft | 167 kts | 281° |
| 2026-04-20 17:24 | 49.16635 | -123.00021 | 2055 ft | 148 kts | 282° |
| 2026-04-20 17:24 | 49.17019 | -123.03177 | 1717 ft | 156 kts | 282° |
| 2026-04-20 17:24 | 49.17389 | -123.06493 | 1284 ft | 157 kts | 281° |
| 2026-04-20 17:24 | 49.17729 | -123.09568 | 899 ft | 143 kts | 279° |
| 2026-04-20 17:25 | 49.18054 | -123.12444 | 500 ft | 134 kts | 281° |
| 2026-04-20 17:25 | 49.18320 | -123.14777 | 240 ft | 136 kts | 281° |
| 2026-04-20 17:25 | 49.18491 | -123.16219 | 60 ft | 134 kts | 281° |
| 2026-04-20 17:25 | 49.18636 | -123.17512 | 29 ft | 109 kts | 280° |
| 2026-04-20 17:26 | 49.18742 | -123.18446 | 26 ft | 64 kts | 280° |